<?xml version='1.0' encoding='UTF-8'?>
<gpx version="1.1" creator="https://www.komoot.de" xmlns="http://www.topografix.com/GPX/1/1" xmlns:xsi="http://www.w3.org/2001/XMLSchema-instance" xsi:schemaLocation="http://www.topografix.com/GPX/1/1 http://www.topografix.com/GPX/1/1/gpx.xsd">
  <metadata>
    <name>Wanderung</name>
    <author>
      <link href="https://www.komoot.de">
        <text>komoot</text>
        <type>text/html</type>
      </link>
    </author>
  </metadata>
  <trk>
    <name>Wanderung</name>
    <trkseg>
      <trkpt lat="50.586002" lon="9.540307">
        <ele>282.467913</ele>
        <time>2025-02-18T10:20:03.543Z</time>
      </trkpt>
      <trkpt lat="50.586293" lon="9.540067">
        <ele>282.467913</ele>
        <time>2025-02-18T10:20:06.557Z</time>
      </trkpt>
      <trkpt lat="50.586202" lon="9.540030">
        <ele>282.467913</ele>
        <time>2025-02-18T10:20:31.116Z</time>
      </trkpt>
      <trkpt lat="50.586298" lon="9.540005">
        <ele>282.467913</ele>
        <time>2025-02-18T10:20:57.114Z</time>
      </trkpt>
      <trkpt lat="50.586387" lon="9.540053">
        <ele>282.467913</ele>
        <time>2025-02-18T10:21:04.124Z</time>
      </trkpt>
      <trkpt lat="50.586483" lon="9.540118">
        <ele>282.467913</ele>
        <time>2025-02-18T10:21:18.111Z</time>
      </trkpt>
      <trkpt lat="50.586575" lon="9.540113">
        <ele>282.467913</ele>
        <time>2025-02-18T10:21:28.118Z</time>
      </trkpt>
      <trkpt lat="50.586667" lon="9.540122">
        <ele>282.487372</ele>
        <time>2025-02-18T10:21:35.115Z</time>
      </trkpt>
      <trkpt lat="50.586762" lon="9.540147">
        <ele>283.064491</ele>
        <time>2025-02-18T10:21:44.106Z</time>
      </trkpt>
      <trkpt lat="50.586860" lon="9.540155">
        <ele>283.652484</ele>
        <time>2025-02-18T10:21:52.109Z</time>
      </trkpt>
      <trkpt lat="50.586955" lon="9.540150">
        <ele>284.222030</ele>
        <time>2025-02-18T10:22:00.119Z</time>
      </trkpt>
      <trkpt lat="50.587055" lon="9.540115">
        <ele>284.835833</ele>
        <time>2025-02-18T10:22:11.118Z</time>
      </trkpt>
      <trkpt lat="50.587148" lon="9.540148">
        <ele>285.407044</ele>
        <time>2025-02-18T10:22:18.129Z</time>
      </trkpt>
      <trkpt lat="50.587243" lon="9.540173">
        <ele>285.984163</ele>
        <time>2025-02-18T10:22:25.119Z</time>
      </trkpt>
      <trkpt lat="50.587337" lon="9.540132">
        <ele>286.568598</ele>
        <time>2025-02-18T10:22:35.123Z</time>
      </trkpt>
      <trkpt lat="50.587427" lon="9.540143">
        <ele>287.109488</ele>
        <time>2025-02-18T10:22:44.120Z</time>
      </trkpt>
      <trkpt lat="50.587518" lon="9.540093">
        <ele>287.686974</ele>
        <time>2025-02-18T10:22:53.121Z</time>
      </trkpt>
      <trkpt lat="50.587545" lon="9.539953">
        <ele>288.243596</ele>
        <time>2025-02-18T10:23:01.110Z</time>
      </trkpt>
      <trkpt lat="50.587583" lon="9.539812">
        <ele>288.826318</ele>
        <time>2025-02-18T10:23:10.120Z</time>
      </trkpt>
      <trkpt lat="50.587565" lon="9.539655">
        <ele>289.433242</ele>
        <time>2025-02-18T10:23:34.119Z</time>
      </trkpt>
      <trkpt lat="50.587543" lon="9.539513">
        <ele>289.989295</ele>
        <time>2025-02-18T10:23:40.128Z</time>
      </trkpt>
      <trkpt lat="50.587547" lon="9.539358">
        <ele>290.579438</ele>
        <time>2025-02-18T10:23:48.118Z</time>
      </trkpt>
      <trkpt lat="50.587508" lon="9.539228">
        <ele>291.126419</ele>
        <time>2025-02-18T10:23:53.120Z</time>
      </trkpt>
      <trkpt lat="50.587465" lon="9.539085">
        <ele>291.728354</ele>
        <time>2025-02-18T10:23:59.120Z</time>
      </trkpt>
      <trkpt lat="50.587435" lon="9.538947">
        <ele>292.283262</ele>
        <time>2025-02-18T10:24:10.136Z</time>
      </trkpt>
      <trkpt lat="50.587432" lon="9.538795">
        <ele>292.861786</ele>
        <time>2025-02-18T10:24:19.117Z</time>
      </trkpt>
      <trkpt lat="50.587460" lon="9.538650">
        <ele>293.250249</ele>
        <time>2025-02-18T10:24:32.109Z</time>
      </trkpt>
      <trkpt lat="50.587445" lon="9.538503">
        <ele>293.265159</ele>
        <time>2025-02-18T10:24:40.123Z</time>
      </trkpt>
      <trkpt lat="50.587432" lon="9.538352">
        <ele>293.280420</ele>
        <time>2025-02-18T10:24:48.134Z</time>
      </trkpt>
      <trkpt lat="50.587445" lon="9.538210">
        <ele>293.294788</ele>
        <time>2025-02-18T10:24:58.119Z</time>
      </trkpt>
      <trkpt lat="50.587408" lon="9.538065">
        <ele>293.310438</ele>
        <time>2025-02-18T10:25:05.112Z</time>
      </trkpt>
      <trkpt lat="50.587383" lon="9.537913">
        <ele>293.326163</ele>
        <time>2025-02-18T10:25:13.109Z</time>
      </trkpt>
      <trkpt lat="50.587340" lon="9.537762">
        <ele>293.342736</ele>
        <time>2025-02-18T10:25:20.132Z</time>
      </trkpt>
      <trkpt lat="50.587295" lon="9.537630">
        <ele>293.357741</ele>
        <time>2025-02-18T10:25:27.119Z</time>
      </trkpt>
      <trkpt lat="50.587263" lon="9.537482">
        <ele>293.373399</ele>
        <time>2025-02-18T10:25:37.116Z</time>
      </trkpt>
      <trkpt lat="50.587248" lon="9.537333">
        <ele>293.388507</ele>
        <time>2025-02-18T10:25:46.124Z</time>
      </trkpt>
      <trkpt lat="50.587227" lon="9.537170">
        <ele>293.405164</ele>
        <time>2025-02-18T10:25:53.118Z</time>
      </trkpt>
      <trkpt lat="50.587170" lon="9.537035">
        <ele>293.421400</ele>
        <time>2025-02-18T10:26:07.119Z</time>
      </trkpt>
      <trkpt lat="50.587167" lon="9.536882">
        <ele>293.436730</ele>
        <time>2025-02-18T10:26:15.136Z</time>
      </trkpt>
      <trkpt lat="50.587148" lon="9.536738">
        <ele>293.451459</ele>
        <time>2025-02-18T10:26:23.122Z</time>
      </trkpt>
      <trkpt lat="50.587122" lon="9.536593">
        <ele>293.466549</ele>
        <time>2025-02-18T10:26:33.146Z</time>
      </trkpt>
      <trkpt lat="50.587097" lon="9.536450">
        <ele>293.481403</ele>
        <time>2025-02-18T10:26:45.120Z</time>
      </trkpt>
      <trkpt lat="50.587077" lon="9.536307">
        <ele>293.496067</ele>
        <time>2025-02-18T10:26:53.117Z</time>
      </trkpt>
      <trkpt lat="50.587072" lon="9.536150">
        <ele>293.511810</ele>
        <time>2025-02-18T10:27:00.126Z</time>
      </trkpt>
      <trkpt lat="50.587073" lon="9.536003">
        <ele>293.526532</ele>
        <time>2025-02-18T10:27:08.123Z</time>
      </trkpt>
      <trkpt lat="50.587033" lon="9.535868">
        <ele>293.724750</ele>
        <time>2025-02-18T10:27:16.129Z</time>
      </trkpt>
      <trkpt lat="50.586995" lon="9.535725">
        <ele>293.966516</ele>
        <time>2025-02-18T10:27:23.133Z</time>
      </trkpt>
      <trkpt lat="50.586972" lon="9.535572">
        <ele>294.211730</ele>
        <time>2025-02-18T10:27:32.113Z</time>
      </trkpt>
      <trkpt lat="50.586923" lon="9.535438">
        <ele>294.452898</ele>
        <time>2025-02-18T10:27:40.113Z</time>
      </trkpt>
      <trkpt lat="50.586910" lon="9.535290">
        <ele>294.685915</ele>
        <time>2025-02-18T10:27:51.117Z</time>
      </trkpt>
      <trkpt lat="50.586935" lon="9.535143">
        <ele>294.923257</ele>
        <time>2025-02-18T10:28:00.120Z</time>
      </trkpt>
      <trkpt lat="50.586935" lon="9.535002">
        <ele>295.143159</ele>
        <time>2025-02-18T10:28:09.114Z</time>
      </trkpt>
      <trkpt lat="50.586905" lon="9.534848">
        <ele>295.394386</ele>
        <time>2025-02-18T10:28:17.115Z</time>
      </trkpt>
      <trkpt lat="50.586855" lon="9.534728">
        <ele>295.618239</ele>
        <time>2025-02-18T10:28:23.120Z</time>
      </trkpt>
      <trkpt lat="50.586822" lon="9.534583">
        <ele>295.858469</ele>
        <time>2025-02-18T10:28:31.120Z</time>
      </trkpt>
      <trkpt lat="50.586780" lon="9.534447">
        <ele>296.094334</ele>
        <time>2025-02-18T10:28:38.135Z</time>
      </trkpt>
      <trkpt lat="50.586737" lon="9.534312">
        <ele>296.329888</ele>
        <time>2025-02-18T10:28:46.111Z</time>
      </trkpt>
      <trkpt lat="50.586700" lon="9.534172">
        <ele>296.566392</ele>
        <time>2025-02-18T10:28:52.121Z</time>
      </trkpt>
      <trkpt lat="50.586723" lon="9.534017">
        <ele>296.814644</ele>
        <time>2025-02-18T10:29:02.117Z</time>
      </trkpt>
      <trkpt lat="50.586698" lon="9.533870">
        <ele>297.051986</ele>
        <time>2025-02-18T10:29:10.119Z</time>
      </trkpt>
      <trkpt lat="50.586743" lon="9.533730">
        <ele>297.296716</ele>
        <time>2025-02-18T10:29:19.113Z</time>
      </trkpt>
      <trkpt lat="50.586782" lon="9.533580">
        <ele>297.549510</ele>
        <time>2025-02-18T10:29:24.134Z</time>
      </trkpt>
      <trkpt lat="50.586698" lon="9.533465">
        <ele>297.822901</ele>
        <time>2025-02-18T10:29:32.119Z</time>
      </trkpt>
      <trkpt lat="50.586635" lon="9.533358">
        <ele>297.965286</ele>
        <time>2025-02-18T10:29:37.112Z</time>
      </trkpt>
      <trkpt lat="50.586612" lon="9.533217">
        <ele>298.005281</ele>
        <time>2025-02-18T10:29:45.120Z</time>
      </trkpt>
      <trkpt lat="50.586595" lon="9.533057">
        <ele>298.049850</ele>
        <time>2025-02-18T10:29:58.117Z</time>
      </trkpt>
      <trkpt lat="50.586573" lon="9.532917">
        <ele>298.089474</ele>
        <time>2025-02-18T10:30:05.119Z</time>
      </trkpt>
      <trkpt lat="50.586588" lon="9.532763">
        <ele>298.132278</ele>
        <time>2025-02-18T10:30:15.118Z</time>
      </trkpt>
      <trkpt lat="50.586638" lon="9.532635">
        <ele>298.173567</ele>
        <time>2025-02-18T10:30:25.113Z</time>
      </trkpt>
      <trkpt lat="50.586695" lon="9.532520">
        <ele>298.213649</ele>
        <time>2025-02-18T10:30:34.125Z</time>
      </trkpt>
      <trkpt lat="50.586728" lon="9.532385">
        <ele>298.253392</ele>
        <time>2025-02-18T10:30:41.116Z</time>
      </trkpt>
      <trkpt lat="50.586795" lon="9.532273">
        <ele>298.295669</ele>
        <time>2025-02-18T10:30:49.116Z</time>
      </trkpt>
      <trkpt lat="50.586833" lon="9.532122">
        <ele>298.340294</ele>
        <time>2025-02-18T10:30:57.126Z</time>
      </trkpt>
      <trkpt lat="50.586895" lon="9.532015">
        <ele>298.380093</ele>
        <time>2025-02-18T10:31:05.115Z</time>
      </trkpt>
      <trkpt lat="50.586953" lon="9.531895">
        <ele>298.421527</ele>
        <time>2025-02-18T10:31:13.119Z</time>
      </trkpt>
      <trkpt lat="50.587015" lon="9.531770">
        <ele>298.465106</ele>
        <time>2025-02-18T10:31:22.124Z</time>
      </trkpt>
      <trkpt lat="50.587065" lon="9.531637">
        <ele>298.507570</ele>
        <time>2025-02-18T10:31:33.122Z</time>
      </trkpt>
      <trkpt lat="50.587115" lon="9.531510">
        <ele>298.548625</ele>
        <time>2025-02-18T10:31:43.115Z</time>
      </trkpt>
      <trkpt lat="50.587163" lon="9.531380">
        <ele>298.589941</ele>
        <time>2025-02-18T10:31:50.116Z</time>
      </trkpt>
      <trkpt lat="50.587217" lon="9.531260">
        <ele>298.630350</ele>
        <time>2025-02-18T10:31:56.133Z</time>
      </trkpt>
      <trkpt lat="50.587293" lon="9.531162">
        <ele>298.672851</ele>
        <time>2025-02-18T10:32:05.122Z</time>
      </trkpt>
      <trkpt lat="50.587298" lon="9.531008">
        <ele>298.715215</ele>
        <time>2025-02-18T10:32:13.114Z</time>
      </trkpt>
      <trkpt lat="50.587263" lon="9.530870">
        <ele>299.004080</ele>
        <time>2025-02-18T10:32:20.123Z</time>
      </trkpt>
      <trkpt lat="50.587287" lon="9.530722">
        <ele>299.385393</ele>
        <time>2025-02-18T10:32:31.114Z</time>
      </trkpt>
      <trkpt lat="50.587228" lon="9.530597">
        <ele>299.774211</ele>
        <time>2025-02-18T10:32:39.113Z</time>
      </trkpt>
      <trkpt lat="50.587168" lon="9.530477">
        <ele>300.155507</ele>
        <time>2025-02-18T10:32:49.121Z</time>
      </trkpt>
      <trkpt lat="50.587098" lon="9.530360">
        <ele>300.556820</ele>
        <time>2025-02-18T10:32:58.119Z</time>
      </trkpt>
      <trkpt lat="50.587030" lon="9.530255">
        <ele>300.931233</ele>
        <time>2025-02-18T10:33:06.123Z</time>
      </trkpt>
      <trkpt lat="50.586962" lon="9.530157">
        <ele>301.293628</ele>
        <time>2025-02-18T10:33:13.116Z</time>
      </trkpt>
      <trkpt lat="50.586903" lon="9.530048">
        <ele>301.651189</ele>
        <time>2025-02-18T10:33:21.127Z</time>
      </trkpt>
      <trkpt lat="50.586870" lon="9.529917">
        <ele>302.003007</ele>
        <time>2025-02-18T10:33:28.132Z</time>
      </trkpt>
      <trkpt lat="50.586805" lon="9.529807">
        <ele>302.378129</ele>
        <time>2025-02-18T10:33:34.133Z</time>
      </trkpt>
      <trkpt lat="50.586842" lon="9.529675">
        <ele>302.738327</ele>
        <time>2025-02-18T10:33:48.120Z</time>
      </trkpt>
      <trkpt lat="50.586892" lon="9.529557">
        <ele>303.092469</ele>
        <time>2025-02-18T10:33:57.122Z</time>
      </trkpt>
      <trkpt lat="50.586948" lon="9.529447">
        <ele>303.444437</ele>
        <time>2025-02-18T10:34:06.127Z</time>
      </trkpt>
      <trkpt lat="50.587008" lon="9.529340">
        <ele>303.800804</ele>
        <time>2025-02-18T10:34:19.113Z</time>
      </trkpt>
      <trkpt lat="50.587040" lon="9.529192">
        <ele>304.191094</ele>
        <time>2025-02-18T10:34:29.116Z</time>
      </trkpt>
      <trkpt lat="50.587057" lon="9.529040">
        <ele>304.576376</ele>
        <time>2025-02-18T10:34:36.109Z</time>
      </trkpt>
      <trkpt lat="50.587100" lon="9.528910">
        <ele>304.942295</ele>
        <time>2025-02-18T10:34:44.116Z</time>
      </trkpt>
      <trkpt lat="50.587147" lon="9.528765">
        <ele>305.348702</ele>
        <time>2025-02-18T10:34:54.118Z</time>
      </trkpt>
      <trkpt lat="50.587207" lon="9.528650">
        <ele>305.720272</ele>
        <time>2025-02-18T10:35:03.109Z</time>
      </trkpt>
      <trkpt lat="50.587267" lon="9.528520">
        <ele>306.359920</ele>
        <time>2025-02-18T10:35:30.114Z</time>
      </trkpt>
      <trkpt lat="50.587323" lon="9.528400">
        <ele>307.005094</ele>
        <time>2025-02-18T10:35:39.117Z</time>
      </trkpt>
      <trkpt lat="50.587388" lon="9.528292">
        <ele>307.649767</ele>
        <time>2025-02-18T10:35:52.121Z</time>
      </trkpt>
      <trkpt lat="50.587458" lon="9.528187">
        <ele>308.309340</ele>
        <time>2025-02-18T10:36:02.138Z</time>
      </trkpt>
      <trkpt lat="50.587522" lon="9.528082">
        <ele>308.939898</ele>
        <time>2025-02-18T10:36:11.114Z</time>
      </trkpt>
      <trkpt lat="50.587593" lon="9.527988">
        <ele>309.572763</ele>
        <time>2025-02-18T10:36:19.127Z</time>
      </trkpt>
      <trkpt lat="50.587653" lon="9.527873">
        <ele>310.217587</ele>
        <time>2025-02-18T10:36:30.121Z</time>
      </trkpt>
      <trkpt lat="50.587722" lon="9.527775">
        <ele>310.851538</ele>
        <time>2025-02-18T10:36:40.120Z</time>
      </trkpt>
      <trkpt lat="50.587792" lon="9.527672">
        <ele>311.505164</ele>
        <time>2025-02-18T10:36:49.123Z</time>
      </trkpt>
      <trkpt lat="50.587842" lon="9.527553">
        <ele>312.123345</ele>
        <time>2025-02-18T10:36:57.123Z</time>
      </trkpt>
      <trkpt lat="50.587895" lon="9.527433">
        <ele>312.756606</ele>
        <time>2025-02-18T10:37:07.121Z</time>
      </trkpt>
      <trkpt lat="50.587980" lon="9.527357">
        <ele>313.423517</ele>
        <time>2025-02-18T10:37:15.122Z</time>
      </trkpt>
      <trkpt lat="50.588065" lon="9.527277">
        <ele>314.099150</ele>
        <time>2025-02-18T10:37:23.118Z</time>
      </trkpt>
      <trkpt lat="50.588132" lon="9.527163">
        <ele>314.772117</ele>
        <time>2025-02-18T10:37:33.122Z</time>
      </trkpt>
      <trkpt lat="50.588228" lon="9.527177">
        <ele>315.429952</ele>
        <time>2025-02-18T10:37:43.132Z</time>
      </trkpt>
      <trkpt lat="50.588283" lon="9.527310">
        <ele>316.117552</ele>
        <time>2025-02-18T10:37:55.126Z</time>
      </trkpt>
      <trkpt lat="50.588367" lon="9.527408">
        <ele>316.830811</ele>
        <time>2025-02-18T10:38:02.113Z</time>
      </trkpt>
      <trkpt lat="50.588430" lon="9.527523">
        <ele>317.488815</ele>
        <time>2025-02-18T10:38:12.126Z</time>
      </trkpt>
      <trkpt lat="50.588490" lon="9.527633">
        <ele>318.090326</ele>
        <time>2025-02-18T10:38:22.124Z</time>
      </trkpt>
      <trkpt lat="50.588543" lon="9.527752">
        <ele>318.363337</ele>
        <time>2025-02-18T10:38:33.113Z</time>
      </trkpt>
      <trkpt lat="50.588615" lon="9.527850">
        <ele>318.644841</ele>
        <time>2025-02-18T10:38:39.114Z</time>
      </trkpt>
      <trkpt lat="50.588668" lon="9.527972">
        <ele>318.922483</ele>
        <time>2025-02-18T10:38:50.114Z</time>
      </trkpt>
      <trkpt lat="50.588727" lon="9.528092">
        <ele>319.207542</ele>
        <time>2025-02-18T10:38:59.124Z</time>
      </trkpt>
      <trkpt lat="50.588812" lon="9.528172">
        <ele>319.500464</ele>
        <time>2025-02-18T10:39:06.116Z</time>
      </trkpt>
      <trkpt lat="50.588867" lon="9.528290">
        <ele>319.775398</ele>
        <time>2025-02-18T10:39:14.125Z</time>
      </trkpt>
      <trkpt lat="50.588912" lon="9.528425">
        <ele>320.061770</ele>
        <time>2025-02-18T10:39:23.131Z</time>
      </trkpt>
      <trkpt lat="50.588977" lon="9.528527">
        <ele>320.333198</ele>
        <time>2025-02-18T10:39:31.115Z</time>
      </trkpt>
      <trkpt lat="50.589027" lon="9.528648">
        <ele>320.604349</ele>
        <time>2025-02-18T10:39:39.114Z</time>
      </trkpt>
      <trkpt lat="50.589077" lon="9.528773">
        <ele>320.881827</ele>
        <time>2025-02-18T10:39:49.115Z</time>
      </trkpt>
      <trkpt lat="50.589153" lon="9.528855">
        <ele>321.154344</ele>
        <time>2025-02-18T10:39:58.119Z</time>
      </trkpt>
      <trkpt lat="50.589222" lon="9.528948">
        <ele>321.422995</ele>
        <time>2025-02-18T10:40:05.118Z</time>
      </trkpt>
      <trkpt lat="50.589328" lon="9.528938">
        <ele>321.737132</ele>
        <time>2025-02-18T10:40:19.113Z</time>
      </trkpt>
      <trkpt lat="50.589412" lon="9.528852">
        <ele>322.033506</ele>
        <time>2025-02-18T10:40:28.127Z</time>
      </trkpt>
      <trkpt lat="50.589508" lon="9.528823">
        <ele>322.322675</ele>
        <time>2025-02-18T10:40:34.111Z</time>
      </trkpt>
      <trkpt lat="50.589597" lon="9.528795">
        <ele>322.591160</ele>
        <time>2025-02-18T10:40:40.119Z</time>
      </trkpt>
      <trkpt lat="50.589695" lon="9.528800">
        <ele>322.881222</ele>
        <time>2025-02-18T10:42:45.119Z</time>
      </trkpt>
      <trkpt lat="50.589775" lon="9.528727">
        <ele>323.154727</ele>
        <time>2025-02-18T10:42:54.128Z</time>
      </trkpt>
      <trkpt lat="50.589873" lon="9.528703">
        <ele>323.574197</ele>
        <time>2025-02-18T10:43:15.117Z</time>
      </trkpt>
      <trkpt lat="50.589952" lon="9.528628">
        <ele>324.446509</ele>
        <time>2025-02-18T10:43:31.123Z</time>
      </trkpt>
      <trkpt lat="50.590048" lon="9.528570">
        <ele>325.418874</ele>
        <time>2025-02-18T10:43:37.123Z</time>
      </trkpt>
      <trkpt lat="50.590138" lon="9.528535">
        <ele>326.295561</ele>
        <time>2025-02-18T10:43:51.117Z</time>
      </trkpt>
      <trkpt lat="50.590228" lon="9.528507">
        <ele>327.163134</ele>
        <time>2025-02-18T10:44:01.114Z</time>
      </trkpt>
      <trkpt lat="50.590323" lon="9.528463">
        <ele>328.099583</ele>
        <time>2025-02-18T10:44:12.125Z</time>
      </trkpt>
      <trkpt lat="50.590418" lon="9.528420">
        <ele>329.034355</ele>
        <time>2025-02-18T10:44:20.139Z</time>
      </trkpt>
      <trkpt lat="50.590503" lon="9.528367">
        <ele>329.898890</ele>
        <time>2025-02-18T10:44:32.113Z</time>
      </trkpt>
      <trkpt lat="50.590607" lon="9.528330">
        <ele>330.907193</ele>
        <time>2025-02-18T10:44:41.130Z</time>
      </trkpt>
      <trkpt lat="50.590688" lon="9.528262">
        <ele>331.775214</ele>
        <time>2025-02-18T10:44:48.120Z</time>
      </trkpt>
      <trkpt lat="50.590778" lon="9.528262">
        <ele>332.626344</ele>
        <time>2025-02-18T10:45:02.121Z</time>
      </trkpt>
      <trkpt lat="50.590870" lon="9.528202">
        <ele>333.568013</ele>
        <time>2025-02-18T10:45:14.127Z</time>
      </trkpt>
      <trkpt lat="50.590962" lon="9.528147">
        <ele>334.498612</ele>
        <time>2025-02-18T10:45:22.125Z</time>
      </trkpt>
      <trkpt lat="50.590998" lon="9.527920">
        <ele>335.903354</ele>
        <time>2025-02-18T10:46:01.117Z</time>
      </trkpt>
      <trkpt lat="50.590935" lon="9.527818">
        <ele>336.757746</ele>
        <time>2025-02-18T10:46:21.122Z</time>
      </trkpt>
      <trkpt lat="50.590918" lon="9.527673">
        <ele>337.643018</ele>
        <time>2025-02-18T10:46:32.118Z</time>
      </trkpt>
      <trkpt lat="50.590907" lon="9.527525">
        <ele>338.537650</ele>
        <time>2025-02-18T10:46:42.113Z</time>
      </trkpt>
      <trkpt lat="50.590842" lon="9.527427">
        <ele>339.388559</ele>
        <time>2025-02-18T10:46:52.128Z</time>
      </trkpt>
      <trkpt lat="50.590805" lon="9.527283">
        <ele>340.321234</ele>
        <time>2025-02-18T10:47:03.120Z</time>
      </trkpt>
      <trkpt lat="50.590767" lon="9.527152">
        <ele>340.917334</ele>
        <time>2025-02-18T10:47:12.121Z</time>
      </trkpt>
      <trkpt lat="50.590728" lon="9.527012">
        <ele>341.521321</ele>
        <time>2025-02-18T10:47:22.133Z</time>
      </trkpt>
      <trkpt lat="50.590675" lon="9.526892">
        <ele>342.098833</ele>
        <time>2025-02-18T10:47:29.128Z</time>
      </trkpt>
      <trkpt lat="50.590627" lon="9.526763">
        <ele>342.689545</ele>
        <time>2025-02-18T10:47:38.125Z</time>
      </trkpt>
      <trkpt lat="50.590577" lon="9.526623">
        <ele>343.324141</ele>
        <time>2025-02-18T10:47:45.123Z</time>
      </trkpt>
      <trkpt lat="50.590600" lon="9.526402">
        <ele>344.208880</ele>
        <time>2025-02-18T10:48:27.118Z</time>
      </trkpt>
      <trkpt lat="50.590538" lon="9.526283">
        <ele>344.817049</ele>
        <time>2025-02-18T10:48:34.131Z</time>
      </trkpt>
      <trkpt lat="50.590435" lon="9.526163">
        <ele>345.614274</ele>
        <time>2025-02-18T10:49:13.119Z</time>
      </trkpt>
      <trkpt lat="50.590387" lon="9.526042">
        <ele>346.177947</ele>
        <time>2025-02-18T10:49:21.124Z</time>
      </trkpt>
      <trkpt lat="50.590355" lon="9.525908">
        <ele>346.743546</ele>
        <time>2025-02-18T10:49:31.133Z</time>
      </trkpt>
      <trkpt lat="50.590315" lon="9.525768">
        <ele>347.350064</ele>
        <time>2025-02-18T10:49:39.120Z</time>
      </trkpt>
      <trkpt lat="50.590278" lon="9.525633">
        <ele>347.930978</ele>
        <time>2025-02-18T10:49:50.142Z</time>
      </trkpt>
      <trkpt lat="50.590240" lon="9.525488">
        <ele>348.550708</ele>
        <time>2025-02-18T10:50:00.118Z</time>
      </trkpt>
      <trkpt lat="50.590188" lon="9.525363">
        <ele>349.141113</ele>
        <time>2025-02-18T10:50:08.121Z</time>
      </trkpt>
      <trkpt lat="50.590128" lon="9.525233">
        <ele>349.776073</ele>
        <time>2025-02-18T10:50:18.137Z</time>
      </trkpt>
      <trkpt lat="50.590105" lon="9.525090">
        <ele>350.358864</ele>
        <time>2025-02-18T10:50:30.124Z</time>
      </trkpt>
      <trkpt lat="50.590067" lon="9.524945">
        <ele>350.978597</ele>
        <time>2025-02-18T10:50:39.118Z</time>
      </trkpt>
      <trkpt lat="50.590027" lon="9.524808">
        <ele>351.574331</ele>
        <time>2025-02-18T10:50:49.117Z</time>
      </trkpt>
      <trkpt lat="50.590018" lon="9.524647">
        <ele>352.494984</ele>
        <time>2025-02-18T10:50:58.111Z</time>
      </trkpt>
      <trkpt lat="50.589998" lon="9.524508">
        <ele>353.314411</ele>
        <time>2025-02-18T10:51:08.119Z</time>
      </trkpt>
      <trkpt lat="50.589980" lon="9.524365">
        <ele>354.152573</ele>
        <time>2025-02-18T10:51:20.120Z</time>
      </trkpt>
      <trkpt lat="50.590070" lon="9.524338">
        <ele>354.982265</ele>
        <time>2025-02-18T10:52:10.122Z</time>
      </trkpt>
      <trkpt lat="50.590120" lon="9.524458">
        <ele>355.807504</ele>
        <time>2025-02-18T10:52:27.118Z</time>
      </trkpt>
      <trkpt lat="50.590128" lon="9.524605">
        <ele>356.655756</ele>
        <time>2025-02-18T10:52:41.121Z</time>
      </trkpt>
      <trkpt lat="50.590175" lon="9.524728">
        <ele>357.481134</ele>
        <time>2025-02-18T10:52:59.118Z</time>
      </trkpt>
      <trkpt lat="50.590223" lon="9.524860">
        <ele>358.355720</ele>
        <time>2025-02-18T10:53:08.114Z</time>
      </trkpt>
      <trkpt lat="50.590300" lon="9.524952">
        <ele>359.230946</ele>
        <time>2025-02-18T10:53:33.115Z</time>
      </trkpt>
      <trkpt lat="50.590383" lon="9.525040">
        <ele>360.137010</ele>
        <time>2025-02-18T10:53:42.114Z</time>
      </trkpt>
      <trkpt lat="50.590477" lon="9.525082">
        <ele>361.021861</ele>
        <time>2025-02-18T10:54:01.124Z</time>
      </trkpt>
      <trkpt lat="50.590550" lon="9.524992">
        <ele>361.861372</ele>
        <time>2025-02-18T10:54:18.126Z</time>
      </trkpt>
      <trkpt lat="50.590535" lon="9.524843">
        <ele>362.728718</ele>
        <time>2025-02-18T10:54:49.111Z</time>
      </trkpt>
      <trkpt lat="50.590498" lon="9.524702">
        <ele>363.605888</ele>
        <time>2025-02-18T10:54:57.122Z</time>
      </trkpt>
      <trkpt lat="50.590588" lon="9.524762">
        <ele>364.490923</ele>
        <time>2025-02-18T10:55:06.115Z</time>
      </trkpt>
      <trkpt lat="50.590533" lon="9.524637">
        <ele>365.365313</ele>
        <time>2025-02-18T10:55:56.117Z</time>
      </trkpt>
      <trkpt lat="50.590485" lon="9.524515">
        <ele>366.190501</ele>
        <time>2025-02-18T10:56:09.122Z</time>
      </trkpt>
      <trkpt lat="50.590450" lon="9.524360">
        <ele>367.136331</ele>
        <time>2025-02-18T10:56:24.121Z</time>
      </trkpt>
      <trkpt lat="50.590448" lon="9.524200">
        <ele>368.074836</ele>
        <time>2025-02-18T10:56:56.117Z</time>
      </trkpt>
      <trkpt lat="50.590470" lon="9.524045">
        <ele>369.084360</ele>
        <time>2025-02-18T10:57:11.126Z</time>
      </trkpt>
      <trkpt lat="50.590423" lon="9.523923">
        <ele>369.991414</ele>
        <time>2025-02-18T10:57:19.123Z</time>
      </trkpt>
      <trkpt lat="50.590368" lon="9.523803">
        <ele>370.932152</ele>
        <time>2025-02-18T10:57:26.113Z</time>
      </trkpt>
      <trkpt lat="50.590330" lon="9.523673">
        <ele>371.841831</ele>
        <time>2025-02-18T10:57:39.119Z</time>
      </trkpt>
      <trkpt lat="50.590335" lon="9.523523">
        <ele>372.796567</ele>
        <time>2025-02-18T10:57:53.116Z</time>
      </trkpt>
      <trkpt lat="50.590285" lon="9.523398">
        <ele>373.735640</ele>
        <time>2025-02-18T10:58:06.114Z</time>
      </trkpt>
      <trkpt lat="50.590263" lon="9.523252">
        <ele>374.689421</ele>
        <time>2025-02-18T10:58:20.126Z</time>
      </trkpt>
      <trkpt lat="50.590243" lon="9.523103">
        <ele>375.657427</ele>
        <time>2025-02-18T10:58:34.127Z</time>
      </trkpt>
      <trkpt lat="50.590207" lon="9.522973">
        <ele>376.558916</ele>
        <time>2025-02-18T10:58:43.116Z</time>
      </trkpt>
      <trkpt lat="50.590223" lon="9.522832">
        <ele>377.469340</ele>
        <time>2025-02-18T10:58:59.118Z</time>
      </trkpt>
      <trkpt lat="50.590270" lon="9.522693">
        <ele>378.470345</ele>
        <time>2025-02-18T10:59:11.116Z</time>
      </trkpt>
      <trkpt lat="50.590238" lon="9.522557">
        <ele>379.392244</ele>
        <time>2025-02-18T10:59:18.117Z</time>
      </trkpt>
      <trkpt lat="50.590185" lon="9.522442">
        <ele>380.295500</ele>
        <time>2025-02-18T10:59:29.118Z</time>
      </trkpt>
      <trkpt lat="50.590192" lon="9.522300">
        <ele>381.200794</ele>
        <time>2025-02-18T11:01:27.119Z</time>
      </trkpt>
      <trkpt lat="50.590170" lon="9.522067">
        <ele>382.698073</ele>
        <time>2025-02-18T11:02:06.121Z</time>
      </trkpt>
      <trkpt lat="50.590135" lon="9.521925">
        <ele>383.666287</ele>
        <time>2025-02-18T11:02:50.132Z</time>
      </trkpt>
      <trkpt lat="50.590137" lon="9.521780">
        <ele>384.588151</ele>
        <time>2025-02-18T11:03:01.144Z</time>
      </trkpt>
      <trkpt lat="50.590122" lon="9.521635">
        <ele>385.521953</ele>
        <time>2025-02-18T11:03:15.144Z</time>
      </trkpt>
      <trkpt lat="50.590122" lon="9.521488">
        <ele>386.437735</ele>
        <time>2025-02-18T11:03:28.138Z</time>
      </trkpt>
      <trkpt lat="50.590078" lon="9.521357">
        <ele>387.348872</ele>
        <time>2025-02-18T11:03:36.142Z</time>
      </trkpt>
      <trkpt lat="50.590090" lon="9.521198">
        <ele>388.333265</ele>
        <time>2025-02-18T11:03:48.140Z</time>
      </trkpt>
      <trkpt lat="50.590067" lon="9.521053">
        <ele>389.252109</ele>
        <time>2025-02-18T11:03:56.126Z</time>
      </trkpt>
      <trkpt lat="50.590060" lon="9.520905">
        <ele>390.164515</ele>
        <time>2025-02-18T11:04:13.142Z</time>
      </trkpt>
      <trkpt lat="50.590060" lon="9.520592">
        <ele>392.088798</ele>
        <time>2025-02-18T11:05:32.144Z</time>
      </trkpt>
      <trkpt lat="50.590015" lon="9.520465">
        <ele>392.982953</ele>
        <time>2025-02-18T11:05:42.133Z</time>
      </trkpt>
      <trkpt lat="50.590007" lon="9.520320">
        <ele>393.877754</ele>
        <time>2025-02-18T11:05:54.142Z</time>
      </trkpt>
      <trkpt lat="50.589997" lon="9.520178">
        <ele>394.756108</ele>
        <time>2025-02-18T11:06:13.140Z</time>
      </trkpt>
      <trkpt lat="50.589958" lon="9.520042">
        <ele>395.673558</ele>
        <time>2025-02-18T11:06:32.142Z</time>
      </trkpt>
      <trkpt lat="50.589970" lon="9.519895">
        <ele>396.584737</ele>
        <time>2025-02-18T11:06:48.144Z</time>
      </trkpt>
      <trkpt lat="50.589978" lon="9.519752">
        <ele>397.467290</ele>
        <time>2025-02-18T11:06:58.131Z</time>
      </trkpt>
      <trkpt lat="50.589983" lon="9.519600">
        <ele>398.403022</ele>
        <time>2025-02-18T11:07:13.140Z</time>
      </trkpt>
      <trkpt lat="50.589968" lon="9.519453">
        <ele>399.318359</ele>
        <time>2025-02-18T11:07:22.142Z</time>
      </trkpt>
      <trkpt lat="50.589967" lon="9.519307">
        <ele>400.216002</ele>
        <time>2025-02-18T11:07:36.138Z</time>
      </trkpt>
      <trkpt lat="50.589953" lon="9.519162">
        <ele>401.117695</ele>
        <time>2025-02-18T11:07:46.141Z</time>
      </trkpt>
      <trkpt lat="50.589978" lon="9.519017">
        <ele>402.041427</ele>
        <time>2025-02-18T11:07:57.142Z</time>
      </trkpt>
      <trkpt lat="50.589973" lon="9.518872">
        <ele>402.934183</ele>
        <time>2025-02-18T11:08:09.143Z</time>
      </trkpt>
      <trkpt lat="50.589988" lon="9.518727">
        <ele>403.009974</ele>
        <time>2025-02-18T11:08:21.144Z</time>
      </trkpt>
      <trkpt lat="50.589992" lon="9.518582">
        <ele>402.509940</ele>
        <time>2025-02-18T11:08:34.142Z</time>
      </trkpt>
      <trkpt lat="50.590010" lon="9.518438">
        <ele>402.004297</ele>
        <time>2025-02-18T11:08:44.144Z</time>
      </trkpt>
      <trkpt lat="50.590042" lon="9.518193">
        <ele>401.142530</ele>
        <time>2025-02-18T11:11:55.144Z</time>
      </trkpt>
      <trkpt lat="50.590057" lon="9.518048">
        <ele>400.636379</ele>
        <time>2025-02-18T11:12:06.143Z</time>
      </trkpt>
      <trkpt lat="50.590068" lon="9.517907">
        <ele>400.146944</ele>
        <time>2025-02-18T11:12:18.140Z</time>
      </trkpt>
      <trkpt lat="50.590082" lon="9.517763">
        <ele>399.645044</ele>
        <time>2025-02-18T11:12:28.147Z</time>
      </trkpt>
      <trkpt lat="50.590125" lon="9.517632">
        <ele>399.136959</ele>
        <time>2025-02-18T11:12:40.143Z</time>
      </trkpt>
      <trkpt lat="50.590163" lon="9.517498">
        <ele>398.631332</ele>
        <time>2025-02-18T11:12:52.141Z</time>
      </trkpt>
      <trkpt lat="50.590197" lon="9.517365">
        <ele>398.137361</ele>
        <time>2025-02-18T11:13:01.137Z</time>
      </trkpt>
      <trkpt lat="50.590237" lon="9.517220">
        <ele>397.592677</ele>
        <time>2025-02-18T11:13:11.142Z</time>
      </trkpt>
      <trkpt lat="50.590252" lon="9.517080">
        <ele>397.103522</ele>
        <time>2025-02-18T11:13:24.142Z</time>
      </trkpt>
      <trkpt lat="50.590265" lon="9.516938">
        <ele>396.609237</ele>
        <time>2025-02-18T11:13:34.142Z</time>
      </trkpt>
      <trkpt lat="50.590308" lon="9.516807">
        <ele>396.101155</ele>
        <time>2025-02-18T11:13:47.141Z</time>
      </trkpt>
      <trkpt lat="50.590363" lon="9.516685">
        <ele>395.585642</ele>
        <time>2025-02-18T11:14:01.142Z</time>
      </trkpt>
      <trkpt lat="50.590453" lon="9.516733">
        <ele>395.069996</ele>
        <time>2025-02-18T11:14:12.141Z</time>
      </trkpt>
      <trkpt lat="50.590535" lon="9.516793">
        <ele>394.579333</ele>
        <time>2025-02-18T11:14:19.132Z</time>
      </trkpt>
      <trkpt lat="50.590627" lon="9.516852">
        <ele>394.040278</ele>
        <time>2025-02-18T11:14:27.139Z</time>
      </trkpt>
      <trkpt lat="50.590707" lon="9.516925">
        <ele>393.532149</ele>
        <time>2025-02-18T11:14:38.142Z</time>
      </trkpt>
      <trkpt lat="50.590790" lon="9.516982">
        <ele>392.636155</ele>
        <time>2025-02-18T11:14:47.143Z</time>
      </trkpt>
      <trkpt lat="50.590877" lon="9.517062">
        <ele>391.639285</ele>
        <time>2025-02-18T11:14:58.142Z</time>
      </trkpt>
      <trkpt lat="50.590970" lon="9.517097">
        <ele>390.693099</ele>
        <time>2025-02-18T11:15:06.140Z</time>
      </trkpt>
      <trkpt lat="50.591060" lon="9.517108">
        <ele>389.799826</ele>
        <time>2025-02-18T11:15:15.142Z</time>
      </trkpt>
      <trkpt lat="50.591162" lon="9.516947">
        <ele>388.370923</ele>
        <time>2025-02-18T11:16:13.146Z</time>
      </trkpt>
      <trkpt lat="50.591193" lon="9.516772">
        <ele>387.229548</ele>
        <time>2025-02-18T11:19:58.143Z</time>
      </trkpt>
      <trkpt lat="50.591227" lon="9.516630">
        <ele>386.276143</ele>
        <time>2025-02-18T11:20:08.142Z</time>
      </trkpt>
      <trkpt lat="50.591262" lon="9.516498">
        <ele>385.377478</ele>
        <time>2025-02-18T11:20:18.143Z</time>
      </trkpt>
      <trkpt lat="50.591310" lon="9.516372">
        <ele>384.454351</ele>
        <time>2025-02-18T11:20:29.132Z</time>
      </trkpt>
      <trkpt lat="50.591375" lon="9.516238">
        <ele>383.394937</ele>
        <time>2025-02-18T11:21:04.144Z</time>
      </trkpt>
      <trkpt lat="50.591422" lon="9.516113">
        <ele>382.482275</ele>
        <time>2025-02-18T11:21:18.108Z</time>
      </trkpt>
      <trkpt lat="50.591457" lon="9.515978">
        <ele>381.566193</ele>
        <time>2025-02-18T11:21:28.142Z</time>
      </trkpt>
      <trkpt lat="50.591505" lon="9.515842">
        <ele>380.588667</ele>
        <time>2025-02-18T11:21:43.144Z</time>
      </trkpt>
      <trkpt lat="50.591540" lon="9.515707">
        <ele>379.672587</ele>
        <time>2025-02-18T11:21:56.142Z</time>
      </trkpt>
      <trkpt lat="50.591570" lon="9.515560">
        <ele>378.702573</ele>
        <time>2025-02-18T11:22:11.138Z</time>
      </trkpt>
      <trkpt lat="50.591517" lon="9.515445">
        <ele>377.809832</ele>
        <time>2025-02-18T11:22:19.139Z</time>
      </trkpt>
      <trkpt lat="50.591457" lon="9.515337">
        <ele>376.908257</ele>
        <time>2025-02-18T11:22:28.114Z</time>
      </trkpt>
      <trkpt lat="50.591377" lon="9.515250">
        <ele>375.946276</ele>
        <time>2025-02-18T11:22:38.143Z</time>
      </trkpt>
      <trkpt lat="50.591317" lon="9.515127">
        <ele>375.590713</ele>
        <time>2025-02-18T11:22:47.139Z</time>
      </trkpt>
      <trkpt lat="50.591245" lon="9.515040">
        <ele>375.408920</ele>
        <time>2025-02-18T11:22:56.139Z</time>
      </trkpt>
      <trkpt lat="50.591158" lon="9.514958">
        <ele>375.205809</ele>
        <time>2025-02-18T11:23:05.143Z</time>
      </trkpt>
      <trkpt lat="50.591082" lon="9.514880">
        <ele>375.024087</ele>
        <time>2025-02-18T11:23:13.143Z</time>
      </trkpt>
      <trkpt lat="50.591003" lon="9.514788">
        <ele>374.827265</ele>
        <time>2025-02-18T11:23:23.140Z</time>
      </trkpt>
      <trkpt lat="50.590932" lon="9.514688">
        <ele>374.636458</ele>
        <time>2025-02-18T11:23:31.133Z</time>
      </trkpt>
      <trkpt lat="50.590868" lon="9.514575">
        <ele>374.443860</ele>
        <time>2025-02-18T11:23:42.140Z</time>
      </trkpt>
      <trkpt lat="50.590792" lon="9.514475">
        <ele>374.245473</ele>
        <time>2025-02-18T11:23:51.142Z</time>
      </trkpt>
      <trkpt lat="50.590713" lon="9.514388">
        <ele>374.052364</ele>
        <time>2025-02-18T11:24:00.145Z</time>
      </trkpt>
      <trkpt lat="50.590658" lon="9.514268">
        <ele>373.864125</ele>
        <time>2025-02-18T11:24:09.138Z</time>
      </trkpt>
      <trkpt lat="50.590607" lon="9.514137">
        <ele>373.668681</ele>
        <time>2025-02-18T11:24:18.142Z</time>
      </trkpt>
      <trkpt lat="50.590543" lon="9.514023">
        <ele>373.475132</ele>
        <time>2025-02-18T11:24:25.109Z</time>
      </trkpt>
      <trkpt lat="50.590497" lon="9.513897">
        <ele>373.290271</ele>
        <time>2025-02-18T11:24:39.171Z</time>
      </trkpt>
      <trkpt lat="50.590442" lon="9.513782">
        <ele>373.107150</ele>
        <time>2025-02-18T11:24:47.139Z</time>
      </trkpt>
      <trkpt lat="50.590387" lon="9.513650">
        <ele>372.906337</ele>
        <time>2025-02-18T11:24:55.142Z</time>
      </trkpt>
      <trkpt lat="50.590327" lon="9.513538">
        <ele>372.719951</ele>
        <time>2025-02-18T11:25:04.135Z</time>
      </trkpt>
      <trkpt lat="50.590267" lon="9.513413">
        <ele>372.520644</ele>
        <time>2025-02-18T11:25:13.141Z</time>
      </trkpt>
      <trkpt lat="50.590207" lon="9.513292">
        <ele>372.325370</ele>
        <time>2025-02-18T11:25:22.143Z</time>
      </trkpt>
      <trkpt lat="50.590148" lon="9.513168">
        <ele>372.064834</ele>
        <time>2025-02-18T11:25:32.144Z</time>
      </trkpt>
      <trkpt lat="50.590105" lon="9.513040">
        <ele>371.159746</ele>
        <time>2025-02-18T11:25:42.134Z</time>
      </trkpt>
      <trkpt lat="50.590092" lon="9.512885">
        <ele>370.182587</ele>
        <time>2025-02-18T11:25:53.143Z</time>
      </trkpt>
      <trkpt lat="50.590100" lon="9.512735">
        <ele>369.241793</ele>
        <time>2025-02-18T11:26:04.143Z</time>
      </trkpt>
      <trkpt lat="50.590118" lon="9.512590">
        <ele>368.318388</ele>
        <time>2025-02-18T11:26:13.141Z</time>
      </trkpt>
      <trkpt lat="50.590135" lon="9.512448">
        <ele>367.415255</ele>
        <time>2025-02-18T11:26:23.142Z</time>
      </trkpt>
      <trkpt lat="50.590155" lon="9.512303">
        <ele>366.487871</ele>
        <time>2025-02-18T11:26:34.138Z</time>
      </trkpt>
      <trkpt lat="50.590153" lon="9.512160">
        <ele>365.593913</ele>
        <time>2025-02-18T11:26:44.141Z</time>
      </trkpt>
      <trkpt lat="50.590168" lon="9.512017">
        <ele>364.688055</ele>
        <time>2025-02-18T11:26:52.142Z</time>
      </trkpt>
      <trkpt lat="50.590180" lon="9.511867">
        <ele>363.743150</ele>
        <time>2025-02-18T11:27:02.143Z</time>
      </trkpt>
      <trkpt lat="50.590193" lon="9.511717">
        <ele>362.796965</ele>
        <time>2025-02-18T11:27:11.142Z</time>
      </trkpt>
      <trkpt lat="50.590208" lon="9.511568">
        <ele>361.854090</ele>
        <time>2025-02-18T11:27:23.139Z</time>
      </trkpt>
      <trkpt lat="50.590220" lon="9.511423">
        <ele>360.940182</ele>
        <time>2025-02-18T11:27:34.132Z</time>
      </trkpt>
      <trkpt lat="50.590220" lon="9.511275">
        <ele>360.015192</ele>
        <time>2025-02-18T11:27:43.139Z</time>
      </trkpt>
      <trkpt lat="50.590205" lon="9.511115">
        <ele>359.004359</ele>
        <time>2025-02-18T11:27:51.138Z</time>
      </trkpt>
      <trkpt lat="50.590192" lon="9.510965">
        <ele>358.058174</ele>
        <time>2025-02-18T11:27:59.141Z</time>
      </trkpt>
      <trkpt lat="50.590147" lon="9.510832">
        <ele>357.116252</ele>
        <time>2025-02-18T11:28:08.142Z</time>
      </trkpt>
      <trkpt lat="50.590107" lon="9.510698">
        <ele>356.190802</ele>
        <time>2025-02-18T11:28:17.105Z</time>
      </trkpt>
      <trkpt lat="50.590067" lon="9.510557">
        <ele>355.225581</ele>
        <time>2025-02-18T11:28:26.138Z</time>
      </trkpt>
      <trkpt lat="50.590027" lon="9.510417">
        <ele>354.408073</ele>
        <time>2025-02-18T11:28:35.143Z</time>
      </trkpt>
      <trkpt lat="50.589978" lon="9.510297">
        <ele>354.254277</ele>
        <time>2025-02-18T11:28:43.142Z</time>
      </trkpt>
      <trkpt lat="50.589913" lon="9.510182">
        <ele>354.088306</ele>
        <time>2025-02-18T11:28:54.143Z</time>
      </trkpt>
      <trkpt lat="50.589838" lon="9.510082">
        <ele>353.921468</ele>
        <time>2025-02-18T11:29:03.118Z</time>
      </trkpt>
      <trkpt lat="50.589770" lon="9.509967">
        <ele>353.752067</ele>
        <time>2025-02-18T11:29:13.138Z</time>
      </trkpt>
      <trkpt lat="50.589705" lon="9.509855">
        <ele>353.588497</ele>
        <time>2025-02-18T11:29:22.136Z</time>
      </trkpt>
      <trkpt lat="50.589642" lon="9.509742">
        <ele>353.426391</ele>
        <time>2025-02-18T11:29:31.142Z</time>
      </trkpt>
      <trkpt lat="50.589562" lon="9.509640">
        <ele>353.251637</ele>
        <time>2025-02-18T11:29:41.138Z</time>
      </trkpt>
      <trkpt lat="50.589497" lon="9.509540">
        <ele>353.097367</ele>
        <time>2025-02-18T11:29:49.141Z</time>
      </trkpt>
      <trkpt lat="50.589445" lon="9.509418">
        <ele>352.938971</ele>
        <time>2025-02-18T11:29:58.127Z</time>
      </trkpt>
      <trkpt lat="50.589378" lon="9.509312">
        <ele>352.777736</ele>
        <time>2025-02-18T11:30:07.140Z</time>
      </trkpt>
      <trkpt lat="50.589317" lon="9.509202">
        <ele>352.620299</ele>
        <time>2025-02-18T11:30:16.141Z</time>
      </trkpt>
      <trkpt lat="50.589258" lon="9.509087">
        <ele>352.460919</ele>
        <time>2025-02-18T11:30:25.139Z</time>
      </trkpt>
      <trkpt lat="50.589190" lon="9.508992">
        <ele>352.306593</ele>
        <time>2025-02-18T11:30:33.141Z</time>
      </trkpt>
      <trkpt lat="50.589122" lon="9.508872">
        <ele>352.133208</ele>
        <time>2025-02-18T11:31:11.133Z</time>
      </trkpt>
      <trkpt lat="50.589127" lon="9.508727">
        <ele>351.976675</ele>
        <time>2025-02-18T11:31:21.143Z</time>
      </trkpt>
      <trkpt lat="50.589117" lon="9.508580">
        <ele>351.817310</ele>
        <time>2025-02-18T11:31:31.141Z</time>
      </trkpt>
      <trkpt lat="50.589055" lon="9.508452">
        <ele>351.643762</ele>
        <time>2025-02-18T11:31:40.143Z</time>
      </trkpt>
      <trkpt lat="50.588982" lon="9.508353">
        <ele>351.480205</ele>
        <time>2025-02-18T11:31:47.107Z</time>
      </trkpt>
      <trkpt lat="50.588905" lon="9.508270">
        <ele>351.474653</ele>
        <time>2025-02-18T11:31:57.144Z</time>
      </trkpt>
      <trkpt lat="50.588812" lon="9.508320">
        <ele>351.719144</ele>
        <time>2025-02-18T11:32:08.142Z</time>
      </trkpt>
      <trkpt lat="50.588773" lon="9.508462">
        <ele>351.963533</ele>
        <time>2025-02-18T11:32:19.142Z</time>
      </trkpt>
      <trkpt lat="50.588740" lon="9.508603">
        <ele>352.200905</ele>
        <time>2025-02-18T11:32:30.161Z</time>
      </trkpt>
      <trkpt lat="50.588687" lon="9.508728">
        <ele>352.438337</ele>
        <time>2025-02-18T11:32:44.143Z</time>
      </trkpt>
      <trkpt lat="50.588622" lon="9.508842">
        <ele>352.680369</ele>
        <time>2025-02-18T11:32:56.144Z</time>
      </trkpt>
      <trkpt lat="50.588532" lon="9.508902">
        <ele>352.923519</ele>
        <time>2025-02-18T11:33:07.140Z</time>
      </trkpt>
      <trkpt lat="50.588450" lon="9.508970">
        <ele>353.154083</ele>
        <time>2025-02-18T11:33:15.142Z</time>
      </trkpt>
      <trkpt lat="50.588360" lon="9.509035">
        <ele>353.400419</ele>
        <time>2025-02-18T11:33:24.142Z</time>
      </trkpt>
      <trkpt lat="50.588272" lon="9.509082">
        <ele>353.631608</ele>
        <time>2025-02-18T11:33:33.144Z</time>
      </trkpt>
      <trkpt lat="50.588177" lon="9.509118">
        <ele>353.874711</ele>
        <time>2025-02-18T11:33:42.144Z</time>
      </trkpt>
      <trkpt lat="50.588090" lon="9.509172">
        <ele>354.107367</ele>
        <time>2025-02-18T11:33:52.144Z</time>
      </trkpt>
      <trkpt lat="50.588002" lon="9.509228">
        <ele>354.343505</ele>
        <time>2025-02-18T11:34:04.140Z</time>
      </trkpt>
      <trkpt lat="50.587915" lon="9.509293">
        <ele>354.583077</ele>
        <time>2025-02-18T11:34:14.144Z</time>
      </trkpt>
      <trkpt lat="50.587837" lon="9.509372">
        <ele>354.813800</ele>
        <time>2025-02-18T11:34:24.145Z</time>
      </trkpt>
      <trkpt lat="50.587753" lon="9.509428">
        <ele>355.040741</ele>
        <time>2025-02-18T11:34:40.144Z</time>
      </trkpt>
      <trkpt lat="50.587678" lon="9.509530">
        <ele>355.287276</ele>
        <time>2025-02-18T11:34:49.141Z</time>
      </trkpt>
      <trkpt lat="50.587595" lon="9.509613">
        <ele>355.531883</ele>
        <time>2025-02-18T11:34:59.143Z</time>
      </trkpt>
      <trkpt lat="50.587538" lon="9.509725">
        <ele>355.758625</ele>
        <time>2025-02-18T11:35:07.143Z</time>
      </trkpt>
      <trkpt lat="50.587467" lon="9.509813">
        <ele>356.009846</ele>
        <time>2025-02-18T11:35:20.145Z</time>
      </trkpt>
      <trkpt lat="50.587397" lon="9.509908">
        <ele>356.288518</ele>
        <time>2025-02-18T11:35:30.143Z</time>
      </trkpt>
      <trkpt lat="50.587325" lon="9.509995">
        <ele>356.562203</ele>
        <time>2025-02-18T11:36:07.143Z</time>
      </trkpt>
      <trkpt lat="50.587260" lon="9.510100">
        <ele>356.843008</ele>
        <time>2025-02-18T11:36:17.145Z</time>
      </trkpt>
      <trkpt lat="50.587188" lon="9.510205">
        <ele>357.138938</ele>
        <time>2025-02-18T11:36:27.124Z</time>
      </trkpt>
      <trkpt lat="50.587102" lon="9.510265">
        <ele>357.422612</ele>
        <time>2025-02-18T11:36:39.136Z</time>
      </trkpt>
      <trkpt lat="50.587007" lon="9.510285">
        <ele>357.711670</ele>
        <time>2025-02-18T11:36:48.143Z</time>
      </trkpt>
      <trkpt lat="50.586920" lon="9.510242">
        <ele>357.986669</ele>
        <time>2025-02-18T11:36:57.143Z</time>
      </trkpt>
      <trkpt lat="50.586835" lon="9.510172">
        <ele>358.275948</ele>
        <time>2025-02-18T11:37:06.139Z</time>
      </trkpt>
      <trkpt lat="50.586737" lon="9.510043">
        <ele>358.661135</ele>
        <time>2025-02-18T11:38:34.144Z</time>
      </trkpt>
      <trkpt lat="50.586647" lon="9.509932">
        <ele>359.005882</ele>
        <time>2025-02-18T11:41:37.143Z</time>
      </trkpt>
      <trkpt lat="50.586572" lon="9.509847">
        <ele>359.284546</ele>
        <time>2025-02-18T11:42:04.143Z</time>
      </trkpt>
      <trkpt lat="50.586477" lon="9.509850">
        <ele>359.571114</ele>
        <time>2025-02-18T11:42:23.143Z</time>
      </trkpt>
      <trkpt lat="50.586408" lon="9.509945">
        <ele>359.847511</ele>
        <time>2025-02-18T11:42:34.142Z</time>
      </trkpt>
      <trkpt lat="50.586352" lon="9.510060">
        <ele>360.125026</ele>
        <time>2025-02-18T11:42:48.118Z</time>
      </trkpt>
      <trkpt lat="50.586275" lon="9.510137">
        <ele>360.400103</ele>
        <time>2025-02-18T11:42:57.143Z</time>
      </trkpt>
      <trkpt lat="50.586202" lon="9.510220">
        <ele>360.671636</ele>
        <time>2025-02-18T11:43:07.142Z</time>
      </trkpt>
      <trkpt lat="50.586130" lon="9.510333">
        <ele>360.978183</ele>
        <time>2025-02-18T11:43:16.145Z</time>
      </trkpt>
      <trkpt lat="50.586060" lon="9.510452">
        <ele>361.273565</ele>
        <time>2025-02-18T11:43:25.138Z</time>
      </trkpt>
      <trkpt lat="50.585982" lon="9.510525">
        <ele>360.786821</ele>
        <time>2025-02-18T11:43:34.143Z</time>
      </trkpt>
      <trkpt lat="50.585883" lon="9.510518">
        <ele>360.255187</ele>
        <time>2025-02-18T11:46:03.142Z</time>
      </trkpt>
      <trkpt lat="50.585818" lon="9.510412">
        <ele>359.753241</ele>
        <time>2025-02-18T11:46:14.137Z</time>
      </trkpt>
      <trkpt lat="50.585787" lon="9.510272">
        <ele>359.248215</ele>
        <time>2025-02-18T11:46:24.144Z</time>
      </trkpt>
      <trkpt lat="50.585757" lon="9.510125">
        <ele>358.722284</ele>
        <time>2025-02-18T11:46:35.139Z</time>
      </trkpt>
      <trkpt lat="50.585730" lon="9.509985">
        <ele>358.223912</ele>
        <time>2025-02-18T11:46:44.142Z</time>
      </trkpt>
      <trkpt lat="50.585702" lon="9.509847">
        <ele>357.730447</ele>
        <time>2025-02-18T11:46:53.139Z</time>
      </trkpt>
      <trkpt lat="50.585657" lon="9.509723">
        <ele>357.243963</ele>
        <time>2025-02-18T11:47:02.142Z</time>
      </trkpt>
      <trkpt lat="50.585603" lon="9.509593">
        <ele>356.714820</ele>
        <time>2025-02-18T11:47:12.145Z</time>
      </trkpt>
      <trkpt lat="50.585532" lon="9.509498">
        <ele>356.215037</ele>
        <time>2025-02-18T11:47:19.142Z</time>
      </trkpt>
      <trkpt lat="50.585488" lon="9.509357">
        <ele>355.679898</ele>
        <time>2025-02-18T11:47:26.141Z</time>
      </trkpt>
      <trkpt lat="50.585527" lon="9.509228">
        <ele>355.193235</ele>
        <time>2025-02-18T11:47:37.144Z</time>
      </trkpt>
      <trkpt lat="50.585558" lon="9.509095">
        <ele>354.710657</ele>
        <time>2025-02-18T11:47:45.139Z</time>
      </trkpt>
      <trkpt lat="50.585603" lon="9.508963">
        <ele>354.200334</ele>
        <time>2025-02-18T11:47:53.140Z</time>
      </trkpt>
      <trkpt lat="50.585617" lon="9.508818">
        <ele>353.700766</ele>
        <time>2025-02-18T11:48:05.143Z</time>
      </trkpt>
      <trkpt lat="50.585652" lon="9.508678">
        <ele>353.188271</ele>
        <time>2025-02-18T11:48:17.143Z</time>
      </trkpt>
      <trkpt lat="50.585595" lon="9.508550">
        <ele>352.655741</ele>
        <time>2025-02-18T11:48:25.141Z</time>
      </trkpt>
      <trkpt lat="50.585550" lon="9.508413">
        <ele>352.130352</ele>
        <time>2025-02-18T11:48:34.143Z</time>
      </trkpt>
      <trkpt lat="50.585513" lon="9.508280">
        <ele>351.635757</ele>
        <time>2025-02-18T11:48:41.138Z</time>
      </trkpt>
      <trkpt lat="50.585470" lon="9.508143">
        <ele>351.963350</ele>
        <time>2025-02-18T11:48:49.141Z</time>
      </trkpt>
      <trkpt lat="50.585423" lon="9.508013">
        <ele>352.286446</ele>
        <time>2025-02-18T11:48:57.139Z</time>
      </trkpt>
      <trkpt lat="50.585407" lon="9.507820">
        <ele>352.706817</ele>
        <time>2025-02-18T11:49:31.141Z</time>
      </trkpt>
      <trkpt lat="50.585365" lon="9.507683">
        <ele>353.035390</ele>
        <time>2025-02-18T11:49:40.142Z</time>
      </trkpt>
      <trkpt lat="50.585280" lon="9.507637">
        <ele>353.341117</ele>
        <time>2025-02-18T11:49:51.140Z</time>
      </trkpt>
      <trkpt lat="50.585188" lon="9.507668">
        <ele>353.661145</ele>
        <time>2025-02-18T11:50:05.130Z</time>
      </trkpt>
      <trkpt lat="50.585097" lon="9.507743">
        <ele>354.010510</ele>
        <time>2025-02-18T11:50:15.142Z</time>
      </trkpt>
      <trkpt lat="50.585002" lon="9.507760">
        <ele>354.335739</ele>
        <time>2025-02-18T11:50:24.143Z</time>
      </trkpt>
      <trkpt lat="50.584905" lon="9.507743">
        <ele>354.667730</ele>
        <time>2025-02-18T11:50:36.142Z</time>
      </trkpt>
      <trkpt lat="50.584820" lon="9.507790">
        <ele>354.974166</ele>
        <time>2025-02-18T11:50:46.143Z</time>
      </trkpt>
      <trkpt lat="50.584728" lon="9.507812">
        <ele>355.290698</ele>
        <time>2025-02-18T11:50:55.142Z</time>
      </trkpt>
      <trkpt lat="50.584635" lon="9.507810">
        <ele>355.607075</ele>
        <time>2025-02-18T11:51:06.138Z</time>
      </trkpt>
      <trkpt lat="50.584542" lon="9.507808">
        <ele>355.923452</ele>
        <time>2025-02-18T11:51:17.141Z</time>
      </trkpt>
      <trkpt lat="50.584445" lon="9.507795">
        <ele>356.254598</ele>
        <time>2025-02-18T11:51:28.142Z</time>
      </trkpt>
      <trkpt lat="50.584355" lon="9.507810">
        <ele>356.562450</ele>
        <time>2025-02-18T11:51:36.143Z</time>
      </trkpt>
      <trkpt lat="50.584247" lon="9.507833">
        <ele>356.933164</ele>
        <time>2025-02-18T11:51:45.139Z</time>
      </trkpt>
      <trkpt lat="50.584152" lon="9.507828">
        <ele>357.256495</ele>
        <time>2025-02-18T11:51:55.143Z</time>
      </trkpt>
      <trkpt lat="50.584070" lon="9.507737">
        <ele>357.597715</ele>
        <time>2025-02-18T11:52:13.143Z</time>
      </trkpt>
      <trkpt lat="50.583975" lon="9.507773">
        <ele>358.063366</ele>
        <time>2025-02-18T11:52:20.143Z</time>
      </trkpt>
      <trkpt lat="50.583887" lon="9.507807">
        <ele>358.602867</ele>
        <time>2025-02-18T11:52:29.142Z</time>
      </trkpt>
      <trkpt lat="50.583793" lon="9.507810">
        <ele>359.162671</ele>
        <time>2025-02-18T11:52:42.143Z</time>
      </trkpt>
      <trkpt lat="50.583702" lon="9.507770">
        <ele>359.725206</ele>
        <time>2025-02-18T11:52:49.136Z</time>
      </trkpt>
      <trkpt lat="50.583608" lon="9.507760">
        <ele>360.286171</ele>
        <time>2025-02-18T11:53:01.142Z</time>
      </trkpt>
      <trkpt lat="50.583518" lon="9.507715">
        <ele>360.848401</ele>
        <time>2025-02-18T11:53:11.142Z</time>
      </trkpt>
      <trkpt lat="50.583428" lon="9.507665">
        <ele>361.416637</ele>
        <time>2025-02-18T11:53:22.142Z</time>
      </trkpt>
      <trkpt lat="50.583332" lon="9.507647">
        <ele>361.992272</ele>
        <time>2025-02-18T11:53:33.135Z</time>
      </trkpt>
      <trkpt lat="50.583240" lon="9.507615">
        <ele>362.553253</ele>
        <time>2025-02-18T11:53:49.138Z</time>
      </trkpt>
      <trkpt lat="50.583150" lon="9.507587">
        <ele>363.099482</ele>
        <time>2025-02-18T11:54:05.111Z</time>
      </trkpt>
      <trkpt lat="50.583060" lon="9.507582">
        <ele>363.635688</ele>
        <time>2025-02-18T11:54:14.137Z</time>
      </trkpt>
      <trkpt lat="50.582970" lon="9.507563">
        <ele>364.176354</ele>
        <time>2025-02-18T11:54:23.139Z</time>
      </trkpt>
      <trkpt lat="50.582872" lon="9.507587">
        <ele>364.766873</ele>
        <time>2025-02-18T11:54:34.141Z</time>
      </trkpt>
      <trkpt lat="50.582777" lon="9.507607">
        <ele>365.337548</ele>
        <time>2025-02-18T11:54:44.141Z</time>
      </trkpt>
      <trkpt lat="50.582687" lon="9.507610">
        <ele>365.873541</ele>
        <time>2025-02-18T11:54:55.143Z</time>
      </trkpt>
      <trkpt lat="50.582600" lon="9.507653">
        <ele>366.416462</ele>
        <time>2025-02-18T11:55:05.141Z</time>
      </trkpt>
      <trkpt lat="50.582508" lon="9.507702">
        <ele>366.994721</ele>
        <time>2025-02-18T11:55:19.145Z</time>
      </trkpt>
      <trkpt lat="50.582417" lon="9.507737">
        <ele>367.552472</ele>
        <time>2025-02-18T11:55:28.142Z</time>
      </trkpt>
      <trkpt lat="50.582327" lon="9.507750">
        <ele>368.090594</ele>
        <time>2025-02-18T11:55:37.141Z</time>
      </trkpt>
      <trkpt lat="50.582233" lon="9.507765">
        <ele>368.585056</ele>
        <time>2025-02-18T11:55:49.143Z</time>
      </trkpt>
      <trkpt lat="50.582143" lon="9.507812">
        <ele>368.948654</ele>
        <time>2025-02-18T11:55:57.139Z</time>
      </trkpt>
      <trkpt lat="50.582047" lon="9.507837">
        <ele>369.321779</ele>
        <time>2025-02-18T11:56:05.143Z</time>
      </trkpt>
      <trkpt lat="50.581955" lon="9.507838">
        <ele>369.674576</ele>
        <time>2025-02-18T11:56:17.144Z</time>
      </trkpt>
      <trkpt lat="50.581863" lon="9.507887">
        <ele>370.046992</ele>
        <time>2025-02-18T11:56:28.143Z</time>
      </trkpt>
      <trkpt lat="50.581783" lon="9.507963">
        <ele>370.405257</ele>
        <time>2025-02-18T11:56:38.143Z</time>
      </trkpt>
      <trkpt lat="50.581835" lon="9.508093">
        <ele>370.779366</ele>
        <time>2025-02-18T11:58:47.143Z</time>
      </trkpt>
      <trkpt lat="50.581882" lon="9.508218">
        <ele>371.133088</ele>
        <time>2025-02-18T11:59:00.143Z</time>
      </trkpt>
      <trkpt lat="50.581930" lon="9.508357">
        <ele>371.518353</ele>
        <time>2025-02-18T11:59:11.143Z</time>
      </trkpt>
      <trkpt lat="50.581987" lon="9.508467">
        <ele>371.864059</ele>
        <time>2025-02-18T11:59:20.141Z</time>
      </trkpt>
      <trkpt lat="50.582028" lon="9.508603">
        <ele>372.230633</ele>
        <time>2025-02-18T11:59:31.128Z</time>
      </trkpt>
      <trkpt lat="50.582077" lon="9.508738">
        <ele>372.609258</ele>
        <time>2025-02-18T11:59:41.143Z</time>
      </trkpt>
      <trkpt lat="50.582125" lon="9.508862">
        <ele>372.962866</ele>
        <time>2025-02-18T11:59:49.110Z</time>
      </trkpt>
      <trkpt lat="50.582165" lon="9.509000">
        <ele>373.332235</ele>
        <time>2025-02-18T12:00:00.142Z</time>
      </trkpt>
      <trkpt lat="50.582208" lon="9.509128">
        <ele>373.684832</ele>
        <time>2025-02-18T12:00:10.142Z</time>
      </trkpt>
      <trkpt lat="50.582253" lon="9.509265">
        <ele>374.060401</ele>
        <time>2025-02-18T12:00:20.142Z</time>
      </trkpt>
      <trkpt lat="50.582285" lon="9.509410">
        <ele>374.434176</ele>
        <time>2025-02-18T12:00:31.144Z</time>
      </trkpt>
      <trkpt lat="50.582338" lon="9.509538">
        <ele>374.806252</ele>
        <time>2025-02-18T12:00:40.143Z</time>
      </trkpt>
      <trkpt lat="50.582362" lon="9.509678">
        <ele>375.159340</ele>
        <time>2025-02-18T12:00:50.142Z</time>
      </trkpt>
      <trkpt lat="50.582417" lon="9.509812">
        <ele>374.848611</ele>
        <time>2025-02-18T12:00:59.118Z</time>
      </trkpt>
      <trkpt lat="50.582432" lon="9.509960">
        <ele>373.862136</ele>
        <time>2025-02-18T12:01:10.142Z</time>
      </trkpt>
      <trkpt lat="50.582385" lon="9.510090">
        <ele>372.877489</ele>
        <time>2025-02-18T12:01:20.137Z</time>
      </trkpt>
      <trkpt lat="50.582387" lon="9.510235">
        <ele>371.922866</ele>
        <time>2025-02-18T12:01:32.143Z</time>
      </trkpt>
      <trkpt lat="50.582335" lon="9.510363">
        <ele>370.922683</ele>
        <time>2025-02-18T12:01:41.143Z</time>
      </trkpt>
      <trkpt lat="50.582275" lon="9.510485">
        <ele>369.906976</ele>
        <time>2025-02-18T12:01:50.139Z</time>
      </trkpt>
      <trkpt lat="50.582215" lon="9.510593">
        <ele>368.962434</ele>
        <time>2025-02-18T12:01:59.136Z</time>
      </trkpt>
      <trkpt lat="50.582160" lon="9.510717">
        <ele>367.966847</ele>
        <time>2025-02-18T12:02:06.138Z</time>
      </trkpt>
      <trkpt lat="50.582185" lon="9.510872">
        <ele>366.914225</ele>
        <time>2025-02-18T12:02:14.141Z</time>
      </trkpt>
      <trkpt lat="50.582185" lon="9.511017">
        <ele>365.959823</ele>
        <time>2025-02-18T12:02:25.134Z</time>
      </trkpt>
      <trkpt lat="50.582223" lon="9.511148">
        <ele>365.011855</ele>
        <time>2025-02-18T12:02:33.134Z</time>
      </trkpt>
      <trkpt lat="50.582245" lon="9.511288">
        <ele>364.062565</ele>
        <time>2025-02-18T12:02:43.140Z</time>
      </trkpt>
      <trkpt lat="50.582282" lon="9.511428">
        <ele>363.064443</ele>
        <time>2025-02-18T12:02:52.142Z</time>
      </trkpt>
      <trkpt lat="50.582270" lon="9.511575">
        <ele>362.088915</ele>
        <time>2025-02-18T12:03:02.143Z</time>
      </trkpt>
      <trkpt lat="50.582302" lon="9.511712">
        <ele>361.128096</ele>
        <time>2025-02-18T12:03:13.133Z</time>
      </trkpt>
      <trkpt lat="50.582298" lon="9.511870">
        <ele>360.087303</ele>
        <time>2025-02-18T12:03:22.142Z</time>
      </trkpt>
      <trkpt lat="50.582325" lon="9.512007">
        <ele>359.143124</ele>
        <time>2025-02-18T12:03:30.138Z</time>
      </trkpt>
      <trkpt lat="50.582323" lon="9.512155">
        <ele>358.168758</ele>
        <time>2025-02-18T12:03:39.145Z</time>
      </trkpt>
      <trkpt lat="50.582342" lon="9.512303">
        <ele>357.174901</ele>
        <time>2025-02-18T12:03:50.142Z</time>
      </trkpt>
      <trkpt lat="50.582355" lon="9.512447">
        <ele>356.328951</ele>
        <time>2025-02-18T12:03:58.143Z</time>
      </trkpt>
      <trkpt lat="50.582355" lon="9.512590">
        <ele>355.598769</ele>
        <time>2025-02-18T12:04:06.112Z</time>
      </trkpt>
      <trkpt lat="50.582340" lon="9.512733">
        <ele>354.858691</ele>
        <time>2025-02-18T12:04:15.142Z</time>
      </trkpt>
      <trkpt lat="50.582317" lon="9.512873">
        <ele>354.120288</ele>
        <time>2025-02-18T12:04:26.143Z</time>
      </trkpt>
      <trkpt lat="50.582290" lon="9.513020">
        <ele>353.338909</ele>
        <time>2025-02-18T12:04:34.131Z</time>
      </trkpt>
      <trkpt lat="50.582260" lon="9.513160">
        <ele>352.584435</ele>
        <time>2025-02-18T12:04:44.139Z</time>
      </trkpt>
      <trkpt lat="50.582252" lon="9.513302">
        <ele>351.856509</ele>
        <time>2025-02-18T12:04:52.111Z</time>
      </trkpt>
      <trkpt lat="50.582257" lon="9.513453">
        <ele>351.084429</ele>
        <time>2025-02-18T12:05:02.132Z</time>
      </trkpt>
      <trkpt lat="50.582312" lon="9.513573">
        <ele>350.328737</ele>
        <time>2025-02-18T12:05:10.144Z</time>
      </trkpt>
      <trkpt lat="50.582388" lon="9.513835">
        <ele>348.857931</ele>
        <time>2025-02-18T12:05:52.144Z</time>
      </trkpt>
      <trkpt lat="50.582453" lon="9.513937">
        <ele>348.120041</ele>
        <time>2025-02-18T12:05:59.144Z</time>
      </trkpt>
      <trkpt lat="50.582527" lon="9.514027">
        <ele>347.368171</ele>
        <time>2025-02-18T12:06:13.143Z</time>
      </trkpt>
      <trkpt lat="50.582542" lon="9.514167">
        <ele>346.643206</ele>
        <time>2025-02-18T12:06:29.147Z</time>
      </trkpt>
      <trkpt lat="50.582570" lon="9.514310">
        <ele>345.879098</ele>
        <time>2025-02-18T12:06:38.142Z</time>
      </trkpt>
      <trkpt lat="50.582603" lon="9.514448">
        <ele>345.126137</ele>
        <time>2025-02-18T12:06:47.143Z</time>
      </trkpt>
      <trkpt lat="50.582658" lon="9.514572">
        <ele>344.353795</ele>
        <time>2025-02-18T12:06:55.145Z</time>
      </trkpt>
      <trkpt lat="50.582688" lon="9.514715">
        <ele>343.584797</ele>
        <time>2025-02-18T12:07:05.142Z</time>
      </trkpt>
      <trkpt lat="50.582738" lon="9.514840">
        <ele>342.830442</ele>
        <time>2025-02-18T12:07:13.133Z</time>
      </trkpt>
      <trkpt lat="50.582797" lon="9.514950">
        <ele>342.111962</ele>
        <time>2025-02-18T12:07:19.144Z</time>
      </trkpt>
      <trkpt lat="50.582852" lon="9.515078">
        <ele>341.408047</ele>
        <time>2025-02-18T12:07:28.144Z</time>
      </trkpt>
      <trkpt lat="50.582905" lon="9.515205">
        <ele>340.715882</ele>
        <time>2025-02-18T12:07:37.144Z</time>
      </trkpt>
      <trkpt lat="50.582955" lon="9.515330">
        <ele>340.043023</ele>
        <time>2025-02-18T12:07:46.144Z</time>
      </trkpt>
      <trkpt lat="50.583002" lon="9.515468">
        <ele>339.329800</ele>
        <time>2025-02-18T12:07:54.144Z</time>
      </trkpt>
      <trkpt lat="50.583048" lon="9.515597">
        <ele>338.655963</ele>
        <time>2025-02-18T12:08:03.124Z</time>
      </trkpt>
      <trkpt lat="50.583087" lon="9.515737">
        <ele>337.959671</ele>
        <time>2025-02-18T12:08:12.145Z</time>
      </trkpt>
      <trkpt lat="50.583137" lon="9.515855">
        <ele>337.313566</ele>
        <time>2025-02-18T12:08:26.142Z</time>
      </trkpt>
      <trkpt lat="50.583158" lon="9.516008">
        <ele>336.600639</ele>
        <time>2025-02-18T12:08:43.144Z</time>
      </trkpt>
      <trkpt lat="50.583167" lon="9.516150">
        <ele>335.950691</ele>
        <time>2025-02-18T12:08:51.143Z</time>
      </trkpt>
      <trkpt lat="50.583178" lon="9.516307">
        <ele>335.231301</ele>
        <time>2025-02-18T12:09:01.143Z</time>
      </trkpt>
      <trkpt lat="50.583197" lon="9.516457">
        <ele>334.534672</ele>
        <time>2025-02-18T12:09:11.137Z</time>
      </trkpt>
      <trkpt lat="50.583225" lon="9.516592">
        <ele>333.887849</ele>
        <time>2025-02-18T12:09:19.142Z</time>
      </trkpt>
      <trkpt lat="50.583233" lon="9.516742">
        <ele>333.202276</ele>
        <time>2025-02-18T12:09:27.141Z</time>
      </trkpt>
      <trkpt lat="50.583225" lon="9.516885">
        <ele>332.548466</ele>
        <time>2025-02-18T12:09:37.145Z</time>
      </trkpt>
      <trkpt lat="50.583265" lon="9.517017">
        <ele>331.882323</ele>
        <time>2025-02-18T12:09:44.144Z</time>
      </trkpt>
      <trkpt lat="50.583300" lon="9.517163">
        <ele>331.171560</ele>
        <time>2025-02-18T12:09:56.124Z</time>
      </trkpt>
      <trkpt lat="50.583328" lon="9.517298">
        <ele>330.524739</ele>
        <time>2025-02-18T12:10:03.142Z</time>
      </trkpt>
      <trkpt lat="50.583378" lon="9.517437">
        <ele>329.797140</ele>
        <time>2025-02-18T12:10:15.140Z</time>
      </trkpt>
      <trkpt lat="50.583387" lon="9.517583">
        <ele>329.239080</ele>
        <time>2025-02-18T12:10:24.139Z</time>
      </trkpt>
      <trkpt lat="50.583378" lon="9.517735">
        <ele>328.891643</ele>
        <time>2025-02-18T12:10:32.143Z</time>
      </trkpt>
      <trkpt lat="50.583400" lon="9.517877">
        <ele>328.558984</ele>
        <time>2025-02-18T12:10:39.144Z</time>
      </trkpt>
      <trkpt lat="50.583432" lon="9.518017">
        <ele>328.220343</ele>
        <time>2025-02-18T12:10:48.143Z</time>
      </trkpt>
      <trkpt lat="50.583478" lon="9.518147">
        <ele>327.881636</ele>
        <time>2025-02-18T12:11:13.144Z</time>
      </trkpt>
      <trkpt lat="50.583533" lon="9.518273">
        <ele>327.533647</ele>
        <time>2025-02-18T12:11:22.142Z</time>
      </trkpt>
      <trkpt lat="50.583587" lon="9.518392">
        <ele>327.200761</ele>
        <time>2025-02-18T12:11:31.144Z</time>
      </trkpt>
      <trkpt lat="50.583630" lon="9.518518">
        <ele>326.875204</ele>
        <time>2025-02-18T12:11:41.135Z</time>
      </trkpt>
      <trkpt lat="50.583690" lon="9.518643">
        <ele>326.518577</ele>
        <time>2025-02-18T12:11:50.143Z</time>
      </trkpt>
      <trkpt lat="50.583737" lon="9.518787">
        <ele>326.150086</ele>
        <time>2025-02-18T12:12:00.114Z</time>
      </trkpt>
      <trkpt lat="50.583793" lon="9.518913">
        <ele>325.800055</ele>
        <time>2025-02-18T12:12:07.143Z</time>
      </trkpt>
      <trkpt lat="50.583855" lon="9.519040">
        <ele>325.435463</ele>
        <time>2025-02-18T12:12:15.109Z</time>
      </trkpt>
      <trkpt lat="50.583903" lon="9.519165">
        <ele>325.102999</ele>
        <time>2025-02-18T12:12:24.144Z</time>
      </trkpt>
      <trkpt lat="50.583957" lon="9.519283">
        <ele>324.771964</ele>
        <time>2025-02-18T12:12:31.142Z</time>
      </trkpt>
      <trkpt lat="50.584010" lon="9.519403">
        <ele>324.439286</ele>
        <time>2025-02-18T12:12:41.143Z</time>
      </trkpt>
      <trkpt lat="50.584108" lon="9.519600">
        <ele>323.869724</ele>
        <time>2025-02-18T12:13:53.139Z</time>
      </trkpt>
      <trkpt lat="50.584147" lon="9.519728">
        <ele>323.546610</ele>
        <time>2025-02-18T12:14:02.139Z</time>
      </trkpt>
      <trkpt lat="50.584195" lon="9.519868">
        <ele>323.184505</ele>
        <time>2025-02-18T12:14:10.142Z</time>
      </trkpt>
      <trkpt lat="50.584238" lon="9.520000">
        <ele>322.837826</ele>
        <time>2025-02-18T12:14:20.143Z</time>
      </trkpt>
      <trkpt lat="50.584295" lon="9.520122">
        <ele>322.436619</ele>
        <time>2025-02-18T12:14:28.143Z</time>
      </trkpt>
      <trkpt lat="50.584332" lon="9.520260">
        <ele>322.039837</ele>
        <time>2025-02-18T12:14:37.142Z</time>
      </trkpt>
      <trkpt lat="50.584373" lon="9.520390">
        <ele>321.655359</ele>
        <time>2025-02-18T12:14:46.136Z</time>
      </trkpt>
      <trkpt lat="50.584428" lon="9.520515">
        <ele>321.252535</ele>
        <time>2025-02-18T12:14:55.143Z</time>
      </trkpt>
      <trkpt lat="50.584462" lon="9.520655">
        <ele>320.855509</ele>
        <time>2025-02-18T12:15:04.143Z</time>
      </trkpt>
      <trkpt lat="50.584510" lon="9.520788">
        <ele>320.450293</ele>
        <time>2025-02-18T12:15:14.144Z</time>
      </trkpt>
      <trkpt lat="50.584538" lon="9.520932">
        <ele>320.051388</ele>
        <time>2025-02-18T12:15:23.136Z</time>
      </trkpt>
      <trkpt lat="50.584598" lon="9.521057">
        <ele>319.636330</ele>
        <time>2025-02-18T12:15:30.142Z</time>
      </trkpt>
      <trkpt lat="50.584645" lon="9.521200">
        <ele>319.209821</ele>
        <time>2025-02-18T12:15:40.139Z</time>
      </trkpt>
      <trkpt lat="50.584680" lon="9.521335">
        <ele>318.823580</ele>
        <time>2025-02-18T12:15:48.142Z</time>
      </trkpt>
      <trkpt lat="50.584713" lon="9.521470">
        <ele>318.440416</ele>
        <time>2025-02-18T12:15:57.141Z</time>
      </trkpt>
      <trkpt lat="50.584745" lon="9.521620">
        <ele>318.021278</ele>
        <time>2025-02-18T12:16:06.139Z</time>
      </trkpt>
      <trkpt lat="50.584802" lon="9.521735">
        <ele>317.634851</ele>
        <time>2025-02-18T12:16:14.142Z</time>
      </trkpt>
      <trkpt lat="50.584823" lon="9.521888">
        <ele>317.220234</ele>
        <time>2025-02-18T12:16:23.138Z</time>
      </trkpt>
      <trkpt lat="50.584872" lon="9.522025">
        <ele>316.803744</ele>
        <time>2025-02-18T12:16:32.119Z</time>
      </trkpt>
      <trkpt lat="50.584897" lon="9.522165">
        <ele>316.418535</ele>
        <time>2025-02-18T12:16:41.133Z</time>
      </trkpt>
      <trkpt lat="50.584913" lon="9.522317">
        <ele>316.010433</ele>
        <time>2025-02-18T12:16:51.141Z</time>
      </trkpt>
      <trkpt lat="50.584957" lon="9.522450">
        <ele>315.613201</ele>
        <time>2025-02-18T12:17:00.123Z</time>
      </trkpt>
      <trkpt lat="50.584997" lon="9.522585">
        <ele>315.284404</ele>
        <time>2025-02-18T12:17:09.138Z</time>
      </trkpt>
      <trkpt lat="50.585030" lon="9.522725">
        <ele>315.033394</ele>
        <time>2025-02-18T12:17:18.142Z</time>
      </trkpt>
      <trkpt lat="50.585048" lon="9.522878">
        <ele>314.771847</ele>
        <time>2025-02-18T12:17:28.143Z</time>
      </trkpt>
      <trkpt lat="50.585082" lon="9.523010">
        <ele>314.532414</ele>
        <time>2025-02-18T12:17:35.134Z</time>
      </trkpt>
      <trkpt lat="50.585117" lon="9.523157">
        <ele>314.268530</ele>
        <time>2025-02-18T12:17:44.140Z</time>
      </trkpt>
      <trkpt lat="50.585177" lon="9.523272">
        <ele>314.018344</ele>
        <time>2025-02-18T12:17:51.143Z</time>
      </trkpt>
      <trkpt lat="50.585215" lon="9.523400">
        <ele>313.780841</ele>
        <time>2025-02-18T12:18:00.142Z</time>
      </trkpt>
      <trkpt lat="50.585260" lon="9.523533">
        <ele>313.527530</ele>
        <time>2025-02-18T12:18:10.141Z</time>
      </trkpt>
      <trkpt lat="50.585305" lon="9.523683">
        <ele>313.248678</ele>
        <time>2025-02-18T12:18:20.144Z</time>
      </trkpt>
      <trkpt lat="50.585352" lon="9.523815">
        <ele>312.994302</ele>
        <time>2025-02-18T12:18:28.139Z</time>
      </trkpt>
      <trkpt lat="50.585405" lon="9.523940">
        <ele>312.741657</ele>
        <time>2025-02-18T12:18:36.144Z</time>
      </trkpt>
      <trkpt lat="50.585465" lon="9.524058">
        <ele>312.487557</ele>
        <time>2025-02-18T12:18:44.144Z</time>
      </trkpt>
      <trkpt lat="50.585477" lon="9.524205">
        <ele>312.238441</ele>
        <time>2025-02-18T12:18:54.136Z</time>
      </trkpt>
      <trkpt lat="50.585540" lon="9.524332">
        <ele>311.967550</ele>
        <time>2025-02-18T12:19:03.138Z</time>
      </trkpt>
      <trkpt lat="50.585603" lon="9.524440">
        <ele>311.721038</ele>
        <time>2025-02-18T12:19:11.143Z</time>
      </trkpt>
      <trkpt lat="50.585637" lon="9.524578">
        <ele>311.472234</ele>
        <time>2025-02-18T12:19:19.142Z</time>
      </trkpt>
      <trkpt lat="50.585682" lon="9.524705">
        <ele>311.227779</ele>
        <time>2025-02-18T12:19:27.141Z</time>
      </trkpt>
      <trkpt lat="50.585732" lon="9.524828">
        <ele>310.982295</ele>
        <time>2025-02-18T12:19:36.144Z</time>
      </trkpt>
      <trkpt lat="50.585783" lon="9.524945">
        <ele>310.743755</ele>
        <time>2025-02-18T12:19:45.138Z</time>
      </trkpt>
      <trkpt lat="50.585840" lon="9.525082">
        <ele>310.462059</ele>
        <time>2025-02-18T12:19:53.144Z</time>
      </trkpt>
      <trkpt lat="50.585880" lon="9.525213">
        <ele>310.208482</ele>
        <time>2025-02-18T12:20:03.108Z</time>
      </trkpt>
      <trkpt lat="50.585918" lon="9.525360">
        <ele>309.931607</ele>
        <time>2025-02-18T12:20:12.142Z</time>
      </trkpt>
      <trkpt lat="50.585948" lon="9.525500">
        <ele>309.673849</ele>
        <time>2025-02-18T12:20:21.146Z</time>
      </trkpt>
      <trkpt lat="50.585985" lon="9.525633">
        <ele>309.420542</ele>
        <time>2025-02-18T12:20:29.142Z</time>
      </trkpt>
      <trkpt lat="50.585992" lon="9.525778">
        <ele>309.166866</ele>
        <time>2025-02-18T12:20:46.142Z</time>
      </trkpt>
      <trkpt lat="50.585992" lon="9.525930">
        <ele>308.901709</ele>
        <time>2025-02-18T12:20:56.139Z</time>
      </trkpt>
      <trkpt lat="50.585982" lon="9.526072">
        <ele>308.652477</ele>
        <time>2025-02-18T12:21:05.144Z</time>
      </trkpt>
      <trkpt lat="50.585932" lon="9.526193">
        <ele>308.400631</ele>
        <time>2025-02-18T12:21:15.134Z</time>
      </trkpt>
      <trkpt lat="50.585868" lon="9.526303">
        <ele>308.140358</ele>
        <time>2025-02-18T12:21:25.142Z</time>
      </trkpt>
      <trkpt lat="50.585783" lon="9.526397">
        <ele>307.854999</ele>
        <time>2025-02-18T12:21:32.142Z</time>
      </trkpt>
      <trkpt lat="50.585730" lon="9.526523">
        <ele>307.591337</ele>
        <time>2025-02-18T12:21:41.133Z</time>
      </trkpt>
      <trkpt lat="50.585675" lon="9.526640">
        <ele>307.337382</ele>
        <time>2025-02-18T12:21:59.142Z</time>
      </trkpt>
      <trkpt lat="50.585643" lon="9.526777">
        <ele>307.082731</ele>
        <time>2025-02-18T12:22:07.143Z</time>
      </trkpt>
      <trkpt lat="50.585672" lon="9.526912">
        <ele>306.834114</ele>
        <time>2025-02-18T12:22:16.140Z</time>
      </trkpt>
      <trkpt lat="50.585702" lon="9.527047">
        <ele>306.584603</ele>
        <time>2025-02-18T12:22:25.143Z</time>
      </trkpt>
      <trkpt lat="50.585712" lon="9.527190">
        <ele>306.333636</ele>
        <time>2025-02-18T12:22:36.143Z</time>
      </trkpt>
      <trkpt lat="50.585745" lon="9.527397">
        <ele>305.961323</ele>
        <time>2025-02-18T12:23:26.117Z</time>
      </trkpt>
      <trkpt lat="50.585773" lon="9.527540">
        <ele>305.700272</ele>
        <time>2025-02-18T12:23:37.118Z</time>
      </trkpt>
      <trkpt lat="50.585830" lon="9.527680">
        <ele>305.711348</ele>
        <time>2025-02-18T12:23:46.120Z</time>
      </trkpt>
      <trkpt lat="50.585892" lon="9.527803">
        <ele>305.726711</ele>
        <time>2025-02-18T12:23:55.125Z</time>
      </trkpt>
      <trkpt lat="50.585988" lon="9.527793">
        <ele>305.741534</ele>
        <time>2025-02-18T12:24:05.111Z</time>
      </trkpt>
      <trkpt lat="50.586027" lon="9.527935">
        <ele>305.756668</ele>
        <time>2025-02-18T12:24:29.124Z</time>
      </trkpt>
      <trkpt lat="50.586085" lon="9.528052">
        <ele>305.771188</ele>
        <time>2025-02-18T12:24:37.115Z</time>
      </trkpt>
      <trkpt lat="50.586165" lon="9.528137">
        <ele>305.786056</ele>
        <time>2025-02-18T12:24:48.123Z</time>
      </trkpt>
      <trkpt lat="50.586210" lon="9.528260">
        <ele>305.799942</ele>
        <time>2025-02-18T12:24:58.117Z</time>
      </trkpt>
      <trkpt lat="50.586267" lon="9.528372">
        <ele>305.813983</ele>
        <time>2025-02-18T12:25:06.132Z</time>
      </trkpt>
      <trkpt lat="50.586343" lon="9.528457">
        <ele>305.828344</ele>
        <time>2025-02-18T12:25:13.121Z</time>
      </trkpt>
      <trkpt lat="50.586397" lon="9.528590">
        <ele>305.843787</ele>
        <time>2025-02-18T12:25:22.124Z</time>
      </trkpt>
      <trkpt lat="50.586438" lon="9.528723">
        <ele>305.858249</ele>
        <time>2025-02-18T12:25:29.124Z</time>
      </trkpt>
      <trkpt lat="50.586480" lon="9.528853">
        <ele>305.872517</ele>
        <time>2025-02-18T12:25:37.130Z</time>
      </trkpt>
      <trkpt lat="50.586512" lon="9.529000">
        <ele>305.887718</ele>
        <time>2025-02-18T12:25:48.121Z</time>
      </trkpt>
      <trkpt lat="50.586568" lon="9.529127">
        <ele>305.902844</ele>
        <time>2025-02-18T12:25:58.112Z</time>
      </trkpt>
      <trkpt lat="50.586622" lon="9.529255">
        <ele>305.917876</ele>
        <time>2025-02-18T12:26:07.119Z</time>
      </trkpt>
      <trkpt lat="50.586658" lon="9.529385">
        <ele>305.931750</ele>
        <time>2025-02-18T12:26:14.115Z</time>
      </trkpt>
      <trkpt lat="50.586710" lon="9.529510">
        <ele>305.946368</ele>
        <time>2025-02-18T12:26:23.123Z</time>
      </trkpt>
      <trkpt lat="50.586755" lon="9.529638">
        <ele>305.960680</ele>
        <time>2025-02-18T12:26:42.139Z</time>
      </trkpt>
      <trkpt lat="50.586795" lon="9.529767">
        <ele>305.921128</ele>
        <time>2025-02-18T12:26:49.116Z</time>
      </trkpt>
      <trkpt lat="50.586843" lon="9.529892">
        <ele>305.595995</ele>
        <time>2025-02-18T12:27:14.120Z</time>
      </trkpt>
      <trkpt lat="50.586872" lon="9.530027">
        <ele>305.278801</ele>
        <time>2025-02-18T12:27:21.125Z</time>
      </trkpt>
      <trkpt lat="50.586938" lon="9.530140">
        <ele>304.937071</ele>
        <time>2025-02-18T12:27:28.112Z</time>
      </trkpt>
      <trkpt lat="50.587013" lon="9.530223">
        <ele>304.615751</ele>
        <time>2025-02-18T12:27:39.130Z</time>
      </trkpt>
      <trkpt lat="50.587063" lon="9.530350">
        <ele>304.283161</ele>
        <time>2025-02-18T12:27:59.116Z</time>
      </trkpt>
      <trkpt lat="50.587142" lon="9.530458">
        <ele>303.916461</ele>
        <time>2025-02-18T12:28:07.128Z</time>
      </trkpt>
      <trkpt lat="50.587210" lon="9.530580">
        <ele>303.555146</ele>
        <time>2025-02-18T12:28:17.131Z</time>
      </trkpt>
      <trkpt lat="50.587267" lon="9.530713">
        <ele>303.198010</ele>
        <time>2025-02-18T12:28:26.113Z</time>
      </trkpt>
      <trkpt lat="50.587267" lon="9.530865">
        <ele>302.859714</ele>
        <time>2025-02-18T12:28:37.121Z</time>
      </trkpt>
      <trkpt lat="50.587268" lon="9.531022">
        <ele>302.510272</ele>
        <time>2025-02-18T12:28:43.134Z</time>
      </trkpt>
      <trkpt lat="50.587263" lon="9.531165">
        <ele>302.191525</ele>
        <time>2025-02-18T12:28:53.139Z</time>
      </trkpt>
      <trkpt lat="50.587202" lon="9.531287">
        <ele>301.845906</ele>
        <time>2025-02-18T12:29:02.117Z</time>
      </trkpt>
      <trkpt lat="50.587147" lon="9.531403">
        <ele>301.523686</ele>
        <time>2025-02-18T12:29:12.114Z</time>
      </trkpt>
      <trkpt lat="50.587085" lon="9.531517">
        <ele>301.189603</ele>
        <time>2025-02-18T12:29:19.121Z</time>
      </trkpt>
      <trkpt lat="50.587015" lon="9.531627">
        <ele>300.842976</ele>
        <time>2025-02-18T12:29:31.113Z</time>
      </trkpt>
      <trkpt lat="50.586963" lon="9.531753">
        <ele>300.508507</ele>
        <time>2025-02-18T12:29:39.125Z</time>
      </trkpt>
      <trkpt lat="50.586918" lon="9.531897">
        <ele>300.151296</ele>
        <time>2025-02-18T12:29:46.127Z</time>
      </trkpt>
      <trkpt lat="50.586867" lon="9.532022">
        <ele>299.820599</ele>
        <time>2025-02-18T12:29:54.120Z</time>
      </trkpt>
      <trkpt lat="50.586808" lon="9.532142">
        <ele>299.642106</ele>
        <time>2025-02-18T12:30:02.123Z</time>
      </trkpt>
      <trkpt lat="50.586767" lon="9.532277">
        <ele>299.596510</ele>
        <time>2025-02-18T12:30:11.128Z</time>
      </trkpt>
      <trkpt lat="50.586732" lon="9.532418">
        <ele>299.550382</ele>
        <time>2025-02-18T12:30:18.113Z</time>
      </trkpt>
      <trkpt lat="50.586680" lon="9.532542">
        <ele>299.505104</ele>
        <time>2025-02-18T12:30:24.123Z</time>
      </trkpt>
      <trkpt lat="50.586600" lon="9.532618">
        <ele>299.460270</ele>
        <time>2025-02-18T12:31:03.112Z</time>
      </trkpt>
      <trkpt lat="50.586560" lon="9.532757">
        <ele>299.413772</ele>
        <time>2025-02-18T12:31:11.120Z</time>
      </trkpt>
      <trkpt lat="50.586575" lon="9.532902">
        <ele>299.369010</ele>
        <time>2025-02-18T12:31:18.120Z</time>
      </trkpt>
      <trkpt lat="50.586582" lon="9.533045">
        <ele>299.325310</ele>
        <time>2025-02-18T12:31:25.118Z</time>
      </trkpt>
      <trkpt lat="50.586582" lon="9.533205">
        <ele>299.276561</ele>
        <time>2025-02-18T12:31:35.113Z</time>
      </trkpt>
      <trkpt lat="50.586617" lon="9.533338">
        <ele>299.232695</ele>
        <time>2025-02-18T12:31:43.119Z</time>
      </trkpt>
      <trkpt lat="50.586653" lon="9.533480">
        <ele>299.186107</ele>
        <time>2025-02-18T12:31:51.121Z</time>
      </trkpt>
      <trkpt lat="50.586693" lon="9.533608">
        <ele>299.142640</ele>
        <time>2025-02-18T12:32:00.112Z</time>
      </trkpt>
      <trkpt lat="50.586777" lon="9.533678">
        <ele>299.097035</ele>
        <time>2025-02-18T12:32:08.117Z</time>
      </trkpt>
      <trkpt lat="50.586752" lon="9.533837">
        <ele>299.047126</ele>
        <time>2025-02-18T12:32:14.116Z</time>
      </trkpt>
      <trkpt lat="50.586692" lon="9.533963">
        <ele>298.999138</ele>
        <time>2025-02-18T12:32:22.119Z</time>
      </trkpt>
      <trkpt lat="50.586745" lon="9.534080">
        <ele>298.955347</ele>
        <time>2025-02-18T12:32:28.119Z</time>
      </trkpt>
      <trkpt lat="50.586765" lon="9.534233">
        <ele>298.907752</ele>
        <time>2025-02-18T12:32:37.119Z</time>
      </trkpt>
      <trkpt lat="50.586765" lon="9.534383">
        <ele>298.862049</ele>
        <time>2025-02-18T12:32:46.125Z</time>
      </trkpt>
      <trkpt lat="50.586805" lon="9.534513">
        <ele>298.818034</ele>
        <time>2025-02-18T12:33:03.118Z</time>
      </trkpt>
      <trkpt lat="50.586828" lon="9.534665">
        <ele>298.624085</ele>
        <time>2025-02-18T12:33:16.142Z</time>
      </trkpt>
      <trkpt lat="50.586850" lon="9.534823">
        <ele>298.361429</ele>
        <time>2025-02-18T12:33:25.147Z</time>
      </trkpt>
      <trkpt lat="50.586880" lon="9.534962">
        <ele>298.123037</ele>
        <time>2025-02-18T12:33:33.138Z</time>
      </trkpt>
      <trkpt lat="50.586907" lon="9.535107">
        <ele>297.877671</ele>
        <time>2025-02-18T12:33:41.143Z</time>
      </trkpt>
      <trkpt lat="50.586922" lon="9.535248">
        <ele>297.645525</ele>
        <time>2025-02-18T12:33:50.136Z</time>
      </trkpt>
      <trkpt lat="50.586932" lon="9.535400">
        <ele>297.397387</ele>
        <time>2025-02-18T12:33:59.144Z</time>
      </trkpt>
      <trkpt lat="50.586967" lon="9.535543">
        <ele>297.148529</ele>
        <time>2025-02-18T12:34:09.142Z</time>
      </trkpt>
      <trkpt lat="50.586988" lon="9.535683">
        <ele>296.914941</ele>
        <time>2025-02-18T12:34:16.132Z</time>
      </trkpt>
      <trkpt lat="50.587013" lon="9.535822">
        <ele>296.680353</ele>
        <time>2025-02-18T12:34:26.143Z</time>
      </trkpt>
      <trkpt lat="50.587047" lon="9.535968">
        <ele>296.427836</ele>
        <time>2025-02-18T12:34:35.144Z</time>
      </trkpt>
      <trkpt lat="50.587040" lon="9.536118">
        <ele>296.183611</ele>
        <time>2025-02-18T12:34:43.138Z</time>
      </trkpt>
      <trkpt lat="50.587058" lon="9.536270">
        <ele>295.932539</ele>
        <time>2025-02-18T12:34:51.136Z</time>
      </trkpt>
      <trkpt lat="50.587095" lon="9.536402">
        <ele>295.698241</ele>
        <time>2025-02-18T12:34:59.143Z</time>
      </trkpt>
      <trkpt lat="50.587127" lon="9.536537">
        <ele>295.464251</ele>
        <time>2025-02-18T12:35:13.139Z</time>
      </trkpt>
      <trkpt lat="50.587168" lon="9.536668">
        <ele>295.227095</ele>
        <time>2025-02-18T12:35:20.146Z</time>
      </trkpt>
      <trkpt lat="50.587177" lon="9.536815">
        <ele>294.987292</ele>
        <time>2025-02-18T12:35:29.144Z</time>
      </trkpt>
      <trkpt lat="50.587197" lon="9.536967">
        <ele>294.735232</ele>
        <time>2025-02-18T12:35:38.143Z</time>
      </trkpt>
      <trkpt lat="50.587228" lon="9.537110">
        <ele>294.489870</ele>
        <time>2025-02-18T12:35:52.144Z</time>
      </trkpt>
      <trkpt lat="50.587227" lon="9.537255">
        <ele>294.254408</ele>
        <time>2025-02-18T12:36:02.142Z</time>
      </trkpt>
      <trkpt lat="50.587270" lon="9.537392">
        <ele>294.311297</ele>
        <time>2025-02-18T12:36:12.143Z</time>
      </trkpt>
      <trkpt lat="50.587273" lon="9.537547">
        <ele>294.447621</ele>
        <time>2025-02-18T12:36:21.141Z</time>
      </trkpt>
      <trkpt lat="50.587290" lon="9.537688">
        <ele>294.573789</ele>
        <time>2025-02-18T12:36:31.142Z</time>
      </trkpt>
      <trkpt lat="50.587325" lon="9.537832">
        <ele>294.709339</ele>
        <time>2025-02-18T12:36:39.145Z</time>
      </trkpt>
      <trkpt lat="50.587350" lon="9.537983">
        <ele>294.846522</ele>
        <time>2025-02-18T12:36:57.144Z</time>
      </trkpt>
      <trkpt lat="50.587380" lon="9.538118">
        <ele>294.972260</ele>
        <time>2025-02-18T12:37:05.144Z</time>
      </trkpt>
      <trkpt lat="50.587413" lon="9.538252">
        <ele>295.098610</ele>
        <time>2025-02-18T12:37:16.143Z</time>
      </trkpt>
      <trkpt lat="50.587400" lon="9.538395">
        <ele>295.225604</ele>
        <time>2025-02-18T12:37:25.132Z</time>
      </trkpt>
      <trkpt lat="50.587412" lon="9.538550">
        <ele>295.362873</ele>
        <time>2025-02-18T12:37:34.142Z</time>
      </trkpt>
      <trkpt lat="50.587412" lon="9.538702">
        <ele>295.496496</ele>
        <time>2025-02-18T12:37:44.140Z</time>
      </trkpt>
      <trkpt lat="50.587422" lon="9.538845">
        <ele>295.622967</ele>
        <time>2025-02-18T12:37:53.143Z</time>
      </trkpt>
      <trkpt lat="50.587455" lon="9.539000">
        <ele>295.766684</ele>
        <time>2025-02-18T12:38:00.142Z</time>
      </trkpt>
      <trkpt lat="50.587487" lon="9.539145">
        <ele>295.901635</ele>
        <time>2025-02-18T12:38:08.144Z</time>
      </trkpt>
      <trkpt lat="50.587502" lon="9.539295">
        <ele>296.035125</ele>
        <time>2025-02-18T12:38:16.139Z</time>
      </trkpt>
      <trkpt lat="50.587515" lon="9.539438">
        <ele>296.162118</ele>
        <time>2025-02-18T12:38:25.144Z</time>
      </trkpt>
      <trkpt lat="50.587543" lon="9.539582">
        <ele>296.294511</ele>
        <time>2025-02-18T12:38:35.135Z</time>
      </trkpt>
      <trkpt lat="50.587558" lon="9.539735">
        <ele>296.430607</ele>
        <time>2025-02-18T12:38:45.143Z</time>
      </trkpt>
      <trkpt lat="50.587528" lon="9.539873">
        <ele>296.558836</ele>
        <time>2025-02-18T12:38:54.143Z</time>
      </trkpt>
      <trkpt lat="50.587498" lon="9.540020">
        <ele>296.694575</ele>
        <time>2025-02-18T12:39:02.143Z</time>
      </trkpt>
      <trkpt lat="50.587435" lon="9.540123">
        <ele>296.694598</ele>
        <time>2025-02-18T12:39:13.142Z</time>
      </trkpt>
      <trkpt lat="50.587340" lon="9.540122">
        <ele>296.694598</ele>
        <time>2025-02-18T12:39:21.110Z</time>
      </trkpt>
      <trkpt lat="50.587250" lon="9.540132">
        <ele>296.694598</ele>
        <time>2025-02-18T12:39:28.122Z</time>
      </trkpt>
      <trkpt lat="50.587160" lon="9.540135">
        <ele>296.694598</ele>
        <time>2025-02-18T12:39:38.143Z</time>
      </trkpt>
      <trkpt lat="50.587057" lon="9.540133">
        <ele>296.694598</ele>
        <time>2025-02-18T12:39:45.106Z</time>
      </trkpt>
      <trkpt lat="50.586960" lon="9.540133">
        <ele>296.694598</ele>
        <time>2025-02-18T12:39:53.143Z</time>
      </trkpt>
      <trkpt lat="50.586867" lon="9.540130">
        <ele>296.694598</ele>
        <time>2025-02-18T12:40:02.138Z</time>
      </trkpt>
      <trkpt lat="50.586773" lon="9.540123">
        <ele>296.694598</ele>
        <time>2025-02-18T12:40:09.133Z</time>
      </trkpt>
      <trkpt lat="50.586687" lon="9.540063">
        <ele>296.694598</ele>
        <time>2025-02-18T12:40:20.140Z</time>
      </trkpt>
      <trkpt lat="50.586590" lon="9.540048">
        <ele>296.694598</ele>
        <time>2025-02-18T12:40:28.142Z</time>
      </trkpt>
      <trkpt lat="50.586497" lon="9.540053">
        <ele>296.694598</ele>
        <time>2025-02-18T12:40:35.142Z</time>
      </trkpt>
      <trkpt lat="50.586407" lon="9.540038">
        <ele>296.694598</ele>
        <time>2025-02-18T12:40:43.129Z</time>
      </trkpt>
      <trkpt lat="50.586317" lon="9.540013">
        <ele>296.694598</ele>
        <time>2025-02-18T12:40:52.145Z</time>
      </trkpt>
      <trkpt lat="50.586227" lon="9.540002">
        <ele>296.694598</ele>
        <time>2025-02-18T12:41:06.143Z</time>
      </trkpt>
    </trkseg>
  </trk>
</gpx>